Wetterdaten: Mittwoch, 05.06.2013
Datum Zeit Temp. Aussen +5cm Feuchte Auss Luftdruck Regen Sonnenschein Regendauer UV Solar Windben
05.06.2013 00:00 15,3 C 11,2 C 62 % 1019,5 hPa 0,0 l/m 0 min 0 min 0,0 UV-I 0 W/m 0,0 km/h (0 Bft)
05.06.2013 00:02 15,3 C 11,2 C 63 % 1019,4 hPa 0,0 l/m 0 min 0 min 0,0 UV-I 0 W/m 0,0 km/h (0 Bft)
05.06.2013 00:06 15,1 C 11,2 C 63 % 1019,4 hPa 0,0 l/m 0 min 0 min 0,0 UV-I 0 W/m 0,0 km/h (0 Bft)
05.06.2013 00:08 15,1 C 10,7 C 63 % 1019,5 hPa 0,0 l/m 0 min 0 min 0,0 UV-I 0 W/m 0,0 km/h (0 Bft)
05.06.2013 00:10 15,0 C 10,7 C 63 % 1019,5 hPa 0,0 l/m 0 min 0 min 0,0 UV-I 0 W/m 2,6 km/h (1 Bft)
05.06.2013 00:12 14,9 C 11,2 C 63 % 1019,4 hPa 0,0 l/m 0 min 0 min 0,0 UV-I 0 W/m 0,0 km/h (0 Bft)
05.06.2013 00:14 14,8 C 11,2 C 63 % 1019,5 hPa 0,0 l/m 0 min 0 min 0,0 UV-I 0 W/m 0,0 km/h (0 Bft)
05.06.2013 00:16 14,8 C 11,2 C 63 % 1019,4 hPa 0,0 l/m 0 min 0 min 0,0 UV-I 0 W/m 2,6 km/h (1 Bft)
05.06.2013 00:18 14,8 C 10,7 C 64 % 1019,3 hPa 0,0 l/m 0 min 0 min 0,0 UV-I 0 W/m 0,0 km/h (0 Bft)
05.06.2013 00:20 14,7 C 10,7 C 64 % 1019,3 hPa 0,0 l/m 0 min 0 min 0,0 UV-I 0 W/m 0,0 km/h (0 Bft)
05.06.2013 00:22 14,6 C 10,7 C 64 % 1019,4 hPa 0,0 l/m 0 min 0 min 0,0 UV-I 0 W/m 0,0 km/h (0 Bft)
05.06.2013 00:24 14,6 C 10,7 C 64 % 1019,4 hPa 0,0 l/m 0 min 0 min 0,0 UV-I 0 W/m 0,0 km/h (0 Bft)
05.06.2013 00:26 14,5 C 10,7 C 64 % 1019,4 hPa 0,0 l/m 0 min 0 min 0,0 UV-I 0 W/m 0,0 km/h (0 Bft)
05.06.2013 00:28 14,4 C 10,7 C 64 % 1019,4 hPa 0,0 l/m 0 min 0 min 0,0 UV-I 0 W/m 2,6 km/h (1 Bft)
05.06.2013 00:30 14,4 C 10,7 C 65 % 1019,4 hPa 0,0 l/m 0 min 0 min 0,0 UV-I 0 W/m 0,0 km/h (0 Bft)
05.06.2013 00:32 14,3 C 10,7 C 65 % 1019,4 hPa 0,0 l/m 0 min 0 min 0,0 UV-I 0 W/m 0,0 km/h (0 Bft)
05.06.2013 00:34 14,3 C 10,7 C 65 % 1019,2 hPa 0,0 l/m 0 min 0 min 0,0 UV-I 0 W/m 0,0 km/h (0 Bft)
05.06.2013 00:36 14,2 C 10,7 C 65 % 1019,2 hPa 0,0 l/m 0 min 0 min 0,0 UV-I 0 W/m 2,6 km/h (1 Bft)
05.06.2013 00:38 14,1 C 10,7 C 65 % 1019,3 hPa 0,0 l/m 0 min 0 min 0,0 UV-I 0 W/m 0,0 km/h (0 Bft)
05.06.2013 00:40 14,0 C 10,7 C 65 % 1019,4 hPa 0,0 l/m 0 min 0 min 0,0 UV-I 0 W/m 0,0 km/h (0 Bft)
05.06.2013 00:42 14,0 C 10,7 C 65 % 1019,4 hPa 0,0 l/m 0 min 0 min 0,0 UV-I 0 W/m 2,6 km/h (1 Bft)
05.06.2013 00:44 14,0 C 11,2 C 66 % 1019,4 hPa 0,0 l/m 0 min 0 min 0,0 UV-I 0 W/m 0,0 km/h (0 Bft)
05.06.2013 00:46 14,0 C 11,2 C 66 % 1019,4 hPa 0,0 l/m 0 min 0 min 0,0 UV-I 0 W/m 0,0 km/h (0 Bft)
05.06.2013 00:48 14,0 C 11,2 C 66 % 1019,4 hPa 0,0 l/m 0 min 0 min 0,0 UV-I 0 W/m 7,7 km/h (2 Bft)
05.06.2013 00:50 13,9 C 11,2 C 67 % 1019,3 hPa 0,0 l/m 0 min 0 min 0,0 UV-I 0 W/m 0,0 km/h (0 Bft)
05.06.2013 00:52 13,9 C 11,2 C 67 % 1019,2 hPa 0,0 l/m 0 min 0 min 0,0 UV-I 0 W/m 0,0 km/h (0 Bft)
05.06.2013 00:54 13,8 C 11,2 C 67 % 1019,2 hPa 0,0 l/m 0 min 0 min 0,0 UV-I 0 W/m 2,6 km/h (1 Bft)
05.06.2013 00:56 13,8 C 11,2 C 67 % 1019,2 hPa 0,0 l/m 0 min 0 min 0,0 UV-I 0 W/m 10,3 km/h (2 Bft)
05.06.2013 00:58 13,7 C 11,2 C 67 % 1019,1 hPa 0,0 l/m 0 min 0 min 0,0 UV-I 0 W/m 2,6 km/h (1 Bft)
05.06.2013 01:00 13,7 C 11,2 C 68 % 1019,1 hPa 0,0 l/m 0 min 0 min 0,0 UV-I 0 W/m 0,0 km/h (0 Bft)
05.06.2013 01:02 13,7 C 11,8 C 68 % 1019,2 hPa 0,0 l/m 0 min 0 min 0,0 UV-I 0 W/m 7,7 km/h (2 Bft)
05.06.2013 01:04 13,7 C 11,8 C 68 % 1019,1 hPa 0,0 l/m 0 min 0 min 0,0 UV-I 0 W/m 0,0 km/h (0 Bft)
05.06.2013 01:06 13,6 C 11,8 C 69 % 1019,1 hPa 0,0 l/m 0 min 0 min 0,0 UV-I 0 W/m 5,1 km/h (1 Bft)
05.06.2013 01:08 13,6 C 11,8 C 69 % 1019,1 hPa 0,0 l/m 0 min 0 min 0,0 UV-I 0 W/m 7,7 km/h (2 Bft)
05.06.2013 01:10 13,6 C 11,8 C 69 % 1019,1 hPa 0,0 l/m 0 min 0 min 0,0 UV-I 0 W/m 0,0 km/h (0 Bft)
05.06.2013 01:12 13,6 C 11,8 C 69 % 1019,1 hPa 0,0 l/m 0 min 0 min 0,0 UV-I 0 W/m 2,6 km/h (1 Bft)
05.06.2013 01:14 13,6 C 11,8 C 69 % 1019,2 hPa 0,0 l/m 0 min 0 min 0,0 UV-I 0 W/m 2,6 km/h (1 Bft)
05.06.2013 01:16 13,6 C 11,8 C 70 % 1019,0 hPa 0,0 l/m 0 min 0 min 0,0 UV-I 0 W/m 7,7 km/h (2 Bft)
05.06.2013 01:18 13,6 C 11,8 C 70 % 1019,1 hPa 0,0 l/m 0 min 0 min 0,0 UV-I 0 W/m 10,3 km/h (2 Bft)
05.06.2013 01:20 13,6 C 11,8 C 70 % 1019,1 hPa 0,0 l/m 0 min 0 min 0,0 UV-I 0 W/m 7,7 km/h (2 Bft)
05.06.2013 01:22 13,5 C 11,8 C 70 % 1019,1 hPa 0,0 l/m 0 min 0 min 0,0 UV-I 0 W/m 12,9 km/h (3 Bft)
05.06.2013 01:24 13,5 C 11,8 C 71 % 1019,1 hPa 0,0 l/m 0 min 0 min 0,0 UV-I 0 W/m 7,7 km/h (2 Bft)
05.06.2013 01:26 13,5 C 11,8 C 71 % 1019,1 hPa 0,0 l/m 0 min 0 min 0,0 UV-I 0 W/m 7,7 km/h (2 Bft)
05.06.2013 01:28 13,5 C 11,8 C 71 % 1019,1 hPa 0,0 l/m 0 min 0 min 0,0 UV-I 0 W/m 2,6 km/h (1 Bft)
05.06.2013 01:30 13,5 C 11,8 C 71 % 1019,1 hPa 0,0 l/m 0 min 0 min 0,0 UV-I 0 W/m 0,0 km/h (0 Bft)
05.06.2013 01:32 13,5 C 11,8 C 71 % 1019,1 hPa 0,0 l/m 0 min 0 min 0,0 UV-I 0 W/m 0,0 km/h (0 Bft)
05.06.2013 01:34 13,5 C 11,8 C 71 % 1019,1 hPa 0,0 l/m 0 min 0 min 0,0 UV-I 0 W/m 5,1 km/h (1 Bft)
05.06.2013 01:36 13,5 C 11,8 C 71 % 1019,1 hPa 0,0 l/m 0 min 0 min 0,0 UV-I 0 W/m 2,6 km/h (1 Bft)
05.06.2013 01:38 13,4 C 11,2 C 71 % 1019,1 hPa 0,0 l/m 0 min 0 min 0,0 UV-I 0 W/m 0,0 km/h (0 Bft)
05.06.2013 01:40 13,4 C 11,2 C 71 % 1019,1 hPa 0,0 l/m 0 min 0 min 0,0 UV-I 0 W/m 0,0 km/h (0 Bft)
05.06.2013 01:42 13,4 C 11,2 C 72 % 1019,0 hPa 0,0 l/m 0 min 0 min 0,0 UV-I 0 W/m 0,0 km/h (0 Bft)
05.06.2013 01:44 13,4 C 10,7 C 72 % 1019,0 hPa 0,0 l/m 0 min 0 min 0,0 UV-I 0 W/m 0,0 km/h (0 Bft)
05.06.2013 01:46 13,4 C 10,7 C 72 % 1019,0 hPa 0,0 l/m 0 min 0 min 0,0 UV-I 0 W/m 0,0 km/h (0 Bft)
05.06.2013 01:48 13,4 C 10,7 C 72 % 1019,0 hPa 0,0 l/m 0 min 0 min 0,0 UV-I 0 W/m 0,0 km/h (0 Bft)
05.06.2013 01:50 13,3 C 10,1 C 72 % 1019,0 hPa 0,0 l/m 0 min 0 min 0,0 UV-I 0 W/m 0,0 km/h (0 Bft)
05.06.2013 01:52 13,3 C 10,1 C 73 % 1019,0 hPa 0,0 l/m 0 min 0 min 0,0 UV-I 0 W/m 0,0 km/h (0 Bft)
05.06.2013 01:54 13,3 C 10,1 C 73 % 1019,0 hPa 0,0 l/m 0 min 0 min 0,0 UV-I 0 W/m 0,0 km/h (0 Bft)
05.06.2013 01:56 13,2 C 10,1 C 73 % 1018,9 hPa 0,0 l/m 0 min 0 min 0,0 UV-I 0 W/m 0,0 km/h (0 Bft)
05.06.2013 01:58 13,2 C 9,6 C 73 % 1018,9 hPa 0,0 l/m 0 min 0 min 0,0 UV-I 0 W/m 0,0 km/h (0 Bft)
05.06.2013 02:00 13,1 C 9,6 C 73 % 1019,0 hPa 0,0 l/m 0 min 0 min 0,0 UV-I 0 W/m 0,0 km/h (0 Bft)
05.06.2013 02:02 13,1 C 9,6 C 73 % 1019,0 hPa 0,0 l/m 0 min 0 min 0,0 UV-I 0 W/m 0,0 km/h (0 Bft)
05.06.2013 02:04 13,0 C 9,6 C 73 % 1018,9 hPa 0,0 l/m 0 min 0 min 0,0 UV-I 0 W/m 0,0 km/h (0 Bft)
05.06.2013 02:06 12,9 C 9,6 C 74 % 1019,0 hPa 0,0 l/m 0 min 0 min 0,0 UV-I 0 W/m 0,0 km/h (0 Bft)
05.06.2013 02:08 12,9 C 9,6 C 74 % 1019,0 hPa 0,0 l/m 0 min 0 min 0,0 UV-I 0 W/m 0,0 km/h (0 Bft)
05.06.2013 02:10 12,8 C 9,6 C 74 % 1019,0 hPa 0,0 l/m 0 min 0 min 0,0 UV-I 0 W/m 0,0 km/h (0 Bft)
05.06.2013 02:12 12,8 C 9,6 C 75 % 1019,0 hPa 0,0 l/m 0 min 0 min 0,0 UV-I 0 W/m 0,0 km/h (0 Bft)
05.06.2013 02:14 12,7 C 9,0 C 75 % 1019,0 hPa 0,0 l/m 0 min 0 min 0,0 UV-I 0 W/m 0,0 km/h (0 Bft)
05.06.2013 02:16 12,7 C 9,0 C 75 % 1018,9 hPa 0,0 l/m 0 min 0 min 0,0 UV-I 0 W/m 0,0 km/h (0 Bft)
05.06.2013 02:18 12,6 C 9,0 C 75 % 1018,9 hPa 0,0 l/m 0 min 0 min 0,0 UV-I 0 W/m 0,0 km/h (0 Bft)
05.06.2013 02:20 12,6 C 9,0 C 75 % 1018,9 hPa 0,0 l/m 0 min 0 min 0,0 UV-I 0 W/m 0,0 km/h (0 Bft)
05.06.2013 02:22 12,5 C 9,0 C 75 % 1019,0 hPa 0,0 l/m 0 min 0 min 0,0 UV-I 0 W/m 0,0 km/h (0 Bft)
05.06.2013 02:24 12,4 C 9,0 C 76 % 1018,9 hPa 0,0 l/m 0 min 0 min 0,0 UV-I 0 W/m 0,0 km/h (0 Bft)
05.06.2013 02:26 12,4 C 9,0 C 76 % 1019,0 hPa 0,0 l/m 0 min 0 min 0,0 UV-I 0 W/m 0,0 km/h (0 Bft)
05.06.2013 02:28 12,3 C 9,0 C 76 % 1019,0 hPa 0,0 l/m 0 min 0 min 0,0 UV-I 0 W/m 0,0 km/h (0 Bft)
05.06.2013 02:30 12,3 C 9,0 C 76 % 1019,1 hPa 0,0 l/m 0 min 0 min 0,0 UV-I 0 W/m 0,0 km/h (0 Bft)
05.06.2013 02:32 12,2 C 9,0 C 76 % 1019,0 hPa 0,0 l/m 0 min 0 min 0,0 UV-I 0 W/m 0,0 km/h (0 Bft)
05.06.2013 02:34 12,2 C 9,0 C 76 % 1018,9 hPa 0,0 l/m 0 min 0 min 0,0 UV-I 0 W/m 0,0 km/h (0 Bft)
05.06.2013 02:36 12,1 C 9,0 C 77 % 1018,9 hPa 0,0 l/m 0 min 0 min 0,0 UV-I 0 W/m 0,0 km/h (0 Bft)
05.06.2013 02:38 12,1 C 9,0 C 77 % 1019,0 hPa 0,0 l/m 0 min 0 min 0,0 UV-I 0 W/m 0,0 km/h (0 Bft)
05.06.2013 02:40 12,0 C 9,0 C 77 % 1019,0 hPa 0,0 l/m 0 min 0 min 0,0 UV-I 0 W/m 0,0 km/h (0 Bft)
05.06.2013 02:42 11,9 C 9,0 C 77 % 1019,0 hPa 0,0 l/m 0 min 0 min 0,0 UV-I 0 W/m 0,0 km/h (0 Bft)
05.06.2013 02:44 11,9 C 8,4 C 77 % 1019,0 hPa 0,0 l/m 0 min 0 min 0,0 UV-I 0 W/m 0,0 km/h (0 Bft)
05.06.2013 02:46 11,8 C 8,4 C 78 % 1019,1 hPa 0,0 l/m 0 min 0 min 0,0 UV-I 0 W/m 0,0 km/h (0 Bft)
05.06.2013 02:48 11,8 C 8,4 C 78 % 1019,0 hPa 0,0 l/m 0 min 0 min 0,0 UV-I 0 W/m 0,0 km/h (0 Bft)
05.06.2013 02:50 11,7 C 8,4 C 78 % 1019,0 hPa 0,0 l/m 0 min 0 min 0,0 UV-I 0 W/m 0,0 km/h (0 Bft)
05.06.2013 02:52 11,7 C 8,4 C 78 % 1018,9 hPa 0,0 l/m 0 min 0 min 0,0 UV-I 0 W/m 0,0 km/h (0 Bft)
05.06.2013 02:54 11,7 C 8,4 C 79 % 1019,0 hPa 0,0 l/m 0 min 0 min 0,0 UV-I 0 W/m 0,0 km/h (0 Bft)
05.06.2013 02:56 11,6 C 8,4 C 79 % 1019,0 hPa 0,0 l/m 0 min 0 min 0,0 UV-I 0 W/m 0,0 km/h (0 Bft)
05.06.2013 02:58 11,6 C 8,4 C 79 % 1018,9 hPa 0,0 l/m 0 min 0 min 0,0 UV-I 0 W/m 0,0 km/h (0 Bft)
05.06.2013 03:00 11,5 C 8,4 C 79 % 1019,0 hPa 0,0 l/m 0 min 0 min 0,0 UV-I 0 W/m 0,0 km/h (0 Bft)
05.06.2013 03:02 11,4 C 8,4 C 79 % 1018,9 hPa 0,0 l/m 0 min 0 min 0,0 UV-I 0 W/m 0,0 km/h (0 Bft)
05.06.2013 03:04 11,4 C 8,4 C 80 % 1018,9 hPa 0,0 l/m 0 min 0 min 0,0 UV-I 0 W/m 0,0 km/h (0 Bft)
05.06.2013 03:06 11,4 C 8,4 C 80 % 1018,9 hPa 0,0 l/m 0 min 0 min 0,0 UV-I 0 W/m 0,0 km/h (0 Bft)
05.06.2013 03:08 11,3 C 8,4 C 80 % 1018,9 hPa 0,0 l/m 0 min 0 min 0,0 UV-I 0 W/m 0,0 km/h (0 Bft)
05.06.2013 03:10 11,3 C 8,4 C 80 % 1018,9 hPa 0,0 l/m 0 min 0 min 0,0 UV-I 0 W/m 0,0 km/h (0 Bft)
05.06.2013 03:12 11,3 C 8,4 C 81 % 1018,9 hPa 0,0 l/m 0 min 0 min 0,0 UV-I 0 W/m 0,0 km/h (0 Bft)
05.06.2013 03:14 11,2 C 8,4 C 81 % 1019,0 hPa 0,0 l/m 0 min 0 min 0,0 UV-I 0 W/m 0,0 km/h (0 Bft)
05.06.2013 03:16 11,2 C 8,4 C 81 % 1018,9 hPa 0,0 l/m 0 min 0 min 0,0 UV-I 0 W/m 0,0 km/h (0 Bft)
05.06.2013 03:18 11,2 C 8,4 C 81 % 1018,9 hPa 0,0 l/m 0 min 0 min 0,0 UV-I 0 W/m 0,0 km/h (0 Bft)
05.06.2013 03:20 11,1 C 8,4 C 81 % 1018,9 hPa 0,0 l/m 0 min 0 min 0,0 UV-I 0 W/m 0,0 km/h (0 Bft)
05.06.2013 03:22 11,1 C 8,4 C 81 % 1018,9 hPa 0,0 l/m 0 min 0 min 0,0 UV-I 0 W/m 0,0 km/h (0 Bft)
05.06.2013 03:24 11,1 C 8,4 C 81 % 1018,9 hPa 0,0 l/m 0 min 0 min 0,0 UV-I 0 W/m 0,0 km/h (0 Bft)
05.06.2013 03:26 11,0 C 8,4 C 81 % 1018,9 hPa 0,0 l/m 0 min 0 min 0,0 UV-I 0 W/m 0,0 km/h (0 Bft)
05.06.2013 03:28 11,0 C 8,4 C 82 % 1018,8 hPa 0,0 l/m 0 min 0 min 0,0 UV-I 0 W/m 0,0 km/h (0 Bft)
05.06.2013 03:30 10,9 C 8,4 C 82 % 1018,9 hPa 0,0 l/m 0 min 0 min 0,0 UV-I 0 W/m 0,0 km/h (0 Bft)
05.06.2013 03:32 10,9 C 8,4 C 82 % 1019,0 hPa 0,0 l/m 0 min 0 min 0,0 UV-I 0 W/m 0,0 km/h (0 Bft)
05.06.2013 03:34 10,9 C 8,4 C 82 % 1018,9 hPa 0,0 l/m 0 min 0 min 0,0 UV-I 0 W/m 0,0 km/h (0 Bft)
05.06.2013 03:36 10,8 C 8,4 C 82 % 1018,9 hPa 0,0 l/m 0 min 0 min 0,0 UV-I 0 W/m 0,0 km/h (0 Bft)
05.06.2013 03:38 10,8 C 8,4 C 82 % 1018,9 hPa 0,0 l/m 0 min 0 min 0,0 UV-I 0 W/m 0,0 km/h (0 Bft)
05.06.2013 03:40 10,8 C 7,9 C 82 % 1018,8 hPa 0,0 l/m 0 min 0 min 0,0 UV-I 0 W/m 0,0 km/h (0 Bft)
05.06.2013 03:42 10,8 C 7,9 C 83 % 1018,8 hPa 0,0 l/m 0 min 0 min 0,0 UV-I 0 W/m 0,0 km/h (0 Bft)
05.06.2013 03:44 10,7 C 7,9 C 83 % 1018,7 hPa 0,0 l/m 0 min 0 min 0,0 UV-I 0 W/m 0,0 km/h (0 Bft)
05.06.2013 03:46 10,7 C 7,9 C 83 % 1018,7 hPa 0,0 l/m 0 min 0 min 0,0 UV-I 0 W/m 0,0 km/h (0 Bft)
05.06.2013 03:48 10,7 C 7,9 C 83 % 1018,7 hPa 0,0 l/m 0 min 0 min 0,0 UV-I 0 W/m 0,0 km/h (0 Bft)
05.06.2013 03:50 10,6 C 7,9 C 83 % 1018,7 hPa 0,0 l/m 0 min 0 min 0,0 UV-I 0 W/m 0,0 km/h (0 Bft)
05.06.2013 03:52 10,6 C 7,9 C 83 % 1018,7 hPa 0,0 l/m 0 min 0 min 0,0 UV-I 0 W/m 0,0 km/h (0 Bft)
05.06.2013 03:54 10,6 C 7,9 C 83 % 1018,8 hPa 0,0 l/m 0 min 0 min 0,0 UV-I 0 W/m 0,0 km/h (0 Bft)
05.06.2013 03:56 10,6 C 7,9 C 83 % 1018,8 hPa 0,0 l/m 0 min 0 min 0,0 UV-I 0 W/m 0,0 km/h (0 Bft)
05.06.2013 03:58 10,5 C 7,9 C 84 % 1018,7 hPa 0,0 l/m 0 min 0 min 0,0 UV-I 0 W/m 0,0 km/h (0 Bft)
05.06.2013 04:00 10,5 C 7,9 C 84 % 1018,8 hPa 0,0 l/m 0 min 0 min 0,0 UV-I 0 W/m 0,0 km/h (0 Bft)
05.06.2013 04:02 10,4 C 7,9 C 84 % 1018,8 hPa 0,0 l/m 0 min 0 min 0,0 UV-I 0 W/m 0,0 km/h (0 Bft)
05.06.2013 04:04 10,4 C 7,9 C 84 % 1018,8 hPa 0,0 l/m 0 min 0 min 0,0 UV-I 0 W/m 0,0 km/h (0 Bft)
05.06.2013 04:06 10,4 C 7,9 C 84 % 1018,8 hPa 0,0 l/m 0 min 0 min 0,0 UV-I 0 W/m 0,0 km/h (0 Bft)
05.06.2013 04:08 10,3 C 7,9 C 84 % 1018,7 hPa 0,0 l/m 0 min 0 min 0,0 UV-I 0 W/m 0,0 km/h (0 Bft)
05.06.2013 04:10 10,3 C 7,9 C 84 % 1018,7 hPa 0,0 l/m 0 min 0 min 0,0 UV-I 0 W/m 0,0 km/h (0 Bft)
05.06.2013 04:12 10,3 C 7,9 C 84 % 1018,7 hPa 0,0 l/m 0 min 0 min 0,0 UV-I 0 W/m 0,0 km/h (0 Bft)
05.06.2013 04:14 10,3 C 7,9 C 84 % 1018,8 hPa 0,0 l/m 0 min 0 min 0,0 UV-I 0 W/m 0,0 km/h (0 Bft)
05.06.2013 04:16 10,3 C 7,9 C 85 % 1018,7 hPa 0,0 l/m 0 min 0 min 0,0 UV-I 0 W/m 0,0 km/h (0 Bft)
05.06.2013 04:18 10,2 C 7,9 C 85 % 1018,7 hPa 0,0 l/m 0 min 0 min 0,0 UV-I 0 W/m 0,0 km/h (0 Bft)
05.06.2013 04:20 10,2 C 7,9 C 85 % 1018,7 hPa 0,0 l/m 0 min 0 min 0,0 UV-I 0 W/m 0,0 km/h (0 Bft)
05.06.2013 04:22 10,2 C 7,9 C 85 % 1018,7 hPa 0,0 l/m 0 min 0 min 0,0 UV-I 0 W/m 0,0 km/h (0 Bft)
05.06.2013 04:24 10,2 C 7,9 C 85 % 1018,6 hPa 0,0 l/m 0 min 0 min 0,0 UV-I 0 W/m 0,0 km/h (0 Bft)
05.06.2013 04:26 10,2 C 7,9 C 85 % 1018,7 hPa 0,0 l/m 0 min 0 min 0,0 UV-I 0 W/m 0,0 km/h (0 Bft)
05.06.2013 04:28 10,1 C 7,9 C 85 % 1018,6 hPa 0,0 l/m 0 min 0 min 0,0 UV-I 0 W/m 0,0 km/h (0 Bft)
05.06.2013 04:30 10,1 C 7,9 C 85 % 1018,7 hPa 0,0 l/m 0 min 0 min 0,0 UV-I 0 W/m 0,0 km/h (0 Bft)
05.06.2013 04:32 10,1 C 7,9 C 86 % 1018,6 hPa 0,0 l/m 0 min 0 min 0,0 UV-I 0 W/m 0,0 km/h (0 Bft)
05.06.2013 04:34 10,0 C 7,3 C 86 % 1018,6 hPa 0,0 l/m 0 min 0 min 0,0 UV-I 0 W/m 0,0 km/h (0 Bft)
05.06.2013 04:36 10,0 C 7,3 C 86 % 1018,6 hPa 0,0 l/m 0 min 0 min 0,0 UV-I 0 W/m 0,0 km/h (0 Bft)
05.06.2013 04:38 9,9 C 7,3 C 86 % 1018,6 hPa 0,0 l/m 0 min 0 min 0,0 UV-I 0 W/m 0,0 km/h (0 Bft)
05.06.2013 04:40 9,9 C 7,3 C 86 % 1018,6 hPa 0,0 l/m 0 min 0 min 0,0 UV-I 0 W/m 0,0 km/h (0 Bft)
05.06.2013 04:42 9,9 C 7,3 C 86 % 1018,7 hPa 0,0 l/m 0 min 0 min 0,0 UV-I 0 W/m 0,0 km/h (0 Bft)
05.06.2013 04:44 9,9 C 7,3 C 86 % 1018,6 hPa 0,0 l/m 0 min 0 min 0,0 UV-I 0 W/m 0,0 km/h (0 Bft)
05.06.2013 04:46 9,9 C 7,3 C 86 % 1018,6 hPa 0,0 l/m 0 min 0 min 0,0 UV-I 0 W/m 0,0 km/h (0 Bft)
05.06.2013 04:48 9,8 C 7,3 C 86 % 1018,6 hPa 0,0 l/m 0 min 0 min 0,0 UV-I 0 W/m 0,0 km/h (0 Bft)
05.06.2013 04:50 9,8 C 7,3 C 86 % 1018,6 hPa 0,0 l/m 0 min 0 min 0,0 UV-I 0 W/m 0,0 km/h (0 Bft)
05.06.2013 04:52 9,8 C 7,3 C 86 % 1018,6 hPa 0,0 l/m 0 min 0 min 0,0 UV-I 0 W/m 0,0 km/h (0 Bft)
05.06.2013 04:54 9,8 C 7,3 C 86 % 1018,6 hPa 0,0 l/m 0 min 0 min 0,0 UV-I 0 W/m 0,0 km/h (0 Bft)
05.06.2013 04:56 9,8 C 7,3 C 86 % 1018,6 hPa 0,0 l/m 0 min 0 min 0,0 UV-I 0 W/m 0,0 km/h (0 Bft)
05.06.2013 04:58 9,7 C 7,3 C 86 % 1018,5 hPa 0,0 l/m 0 min 0 min 0,0 UV-I 0 W/m 0,0 km/h (0 Bft)
05.06.2013 05:00 9,7 C 7,3 C 86 % 1018,5 hPa 0,0 l/m 0 min 0 min 0,0 UV-I 0 W/m 0,0 km/h (0 Bft)
05.06.2013 05:02 9,7 C 7,3 C 87 % 1018,6 hPa 0,0 l/m 0 min 0 min 0,0 UV-I 0 W/m 0,0 km/h (0 Bft)
05.06.2013 05:04 9,7 C 7,3 C 87 % 1018,5 hPa 0,0 l/m 0 min 0 min 0,0 UV-I 0 W/m 0,0 km/h (0 Bft)
05.06.2013 05:06 9,7 C 7,3 C 87 % 1018,6 hPa 0,0 l/m 0 min 0 min 0,0 UV-I 0 W/m 0,0 km/h (0 Bft)
05.06.2013 05:08 9,6 C 7,3 C 87 % 1018,6 hPa 0,0 l/m 0 min 0 min 0,0 UV-I 0 W/m 0,0 km/h (0 Bft)
05.06.2013 05:10 9,6 C 7,3 C 87 % 1018,6 hPa 0,0 l/m 0 min 0 min 0,0 UV-I 0 W/m 0,0 km/h (0 Bft)
05.06.2013 05:12 9,6 C 7,3 C 87 % 1018,6 hPa 0,0 l/m 0 min 0 min 0,0 UV-I 0 W/m 0,0 km/h (0 Bft)
05.06.2013 05:14 9,6 C 7,3 C 87 % 1018,6 hPa 0,0 l/m 0 min 0 min 0,0 UV-I 0 W/m 0,0 km/h (0 Bft)
05.06.2013 05:16 9,6 C 7,3 C 87 % 1018,6 hPa 0,0 l/m 0 min 0 min 0,0 UV-I 0 W/m 0,0 km/h (0 Bft)
05.06.2013 05:18 9,5 C 7,3 C 87 % 1018,6 hPa 0,0 l/m 0 min 0 min 0,0 UV-I 0 W/m 0,0 km/h (0 Bft)
05.06.2013 05:20 9,5 C 7,3 C 87 % 1018,6 hPa 0,0 l/m 0 min 0 min 0,0 UV-I 0 W/m 0,0 km/h (0 Bft)
05.06.2013 05:22 9,4 C 7,3 C 87 % 1018,5 hPa 0,0 l/m 0 min 0 min 0,0 UV-I 0 W/m 0,0 km/h (0 Bft)
05.06.2013 05:24 9,4 C 7,3 C 87 % 1018,5 hPa 0,0 l/m 0 min 0 min 0,0 UV-I 5 W/m 0,0 km/h (0 Bft)
05.06.2013 05:26 9,4 C 7,3 C 88 % 1018,5 hPa 0,0 l/m 0 min 0 min 0,0 UV-I 5 W/m 0,0 km/h (0 Bft)
05.06.2013 05:28 9,4 C 7,3 C 88 % 1018,5 hPa 0,0 l/m 0 min 0 min 0,0 UV-I 5 W/m 0,0 km/h (0 Bft)
05.06.2013 05:30 9,4 C 7,3 C 88 % 1018,5 hPa 0,0 l/m 0 min 0 min 0,0 UV-I 7 W/m 0,0 km/h (0 Bft)
05.06.2013 05:32 9,3 C 7,3 C 88 % 1018,5 hPa 0,0 l/m 0 min 0 min 0,0 UV-I 7 W/m 0,0 km/h (0 Bft)
05.06.2013 05:34 9,3 C 7,3 C 88 % 1018,5 hPa 0,0 l/m 0 min 0 min 0,0 UV-I 7 W/m 0,0 km/h (0 Bft)
05.06.2013 05:36 9,3 C 7,3 C 88 % 1018,6 hPa 0,0 l/m 0 min 0 min 0,0 UV-I 9 W/m 0,0 km/h (0 Bft)
05.06.2013 05:38 9,3 C 7,3 C 88 % 1018,5 hPa 0,0 l/m 0 min 0 min 0,0 UV-I 9 W/m 0,0 km/h (0 Bft)
05.06.2013 05:40 9,3 C 7,3 C 88 % 1018,5 hPa 0,0 l/m 0 min 0 min 0,0 UV-I 11 W/m 0,0 km/h (0 Bft)
05.06.2013 05:42 9,3 C 7,3 C 89 % 1018,5 hPa 0,0 l/m 0 min 0 min 0,0 UV-I 11 W/m 0,0 km/h (0 Bft)
05.06.2013 05:44 9,2 C 7,3 C 89 % 1018,5 hPa 0,0 l/m 0 min 0 min 0,0 UV-I 12 W/m 0,0 km/h (0 Bft)
05.06.2013 05:46 9,2 C 7,3 C 89 % 1018,5 hPa 0,0 l/m 0 min 0 min 0,0 UV-I 14 W/m 0,0 km/h (0 Bft)
05.06.2013 05:48 9,2 C 7,3 C 89 % 1018,5 hPa 0,0 l/m 0 min 0 min 0,0 UV-I 14 W/m 0,0 km/h (0 Bft)
05.06.2013 05:50 9,2 C 7,3 C 89 % 1018,5 hPa 0,0 l/m 0 min 0 min 0,0 UV-I 16 W/m 0,0 km/h (0 Bft)
05.06.2013 05:52 9,2 C 7,3 C 89 % 1018,5 hPa 0,0 l/m 0 min 0 min 0,0 UV-I 16 W/m 0,0 km/h (0 Bft)
05.06.2013 05:54 9,2 C 7,3 C 89 % 1018,5 hPa 0,0 l/m 0 min 0 min 0,0 UV-I 18 W/m 0,0 km/h (0 Bft)
05.06.2013 05:56 9,2 C 7,3 C 89 % 1018,6 hPa 0,0 l/m 0 min 0 min 0,0 UV-I 19 W/m 0,0 km/h (0 Bft)
05.06.2013 05:58 9,1 C 7,3 C 90 % 1018,6 hPa 0,0 l/m 0 min 0 min 0,0 UV-I 19 W/m 0,0 km/h (0 Bft)
05.06.2013 06:00 9,1 C 7,3 C 90 % 1018,6 hPa 0,0 l/m 0 min 0 min 0,0 UV-I 21 W/m 0,0 km/h (0 Bft)
05.06.2013 06:02 9,1 C 7,3 C 90 % 1018,6 hPa 0,0 l/m 0 min 0 min 0,0 UV-I 21 W/m 0,0 km/h (0 Bft)
05.06.2013 06:04 9,1 C 7,3 C 90 % 1018,6 hPa 0,0 l/m 0 min 0 min 0,0 UV-I 23 W/m 0,0 km/h (0 Bft)
05.06.2013 06:06 9,1 C 7,3 C 90 % 1018,6 hPa 0,0 l/m 0 min 0 min 0,0 UV-I 23 W/m 0,0 km/h (0 Bft)
05.06.2013 06:08 9,1 C 7,3 C 90 % 1018,6 hPa 0,0 l/m 0 min 0 min 0,0 UV-I 25 W/m 0,0 km/h (0 Bft)
05.06.2013 06:10 9,1 C 7,3 C 90 % 1018,6 hPa 0,0 l/m 0 min 0 min 0,0 UV-I 25 W/m 0,0 km/h (0 Bft)
05.06.2013 06:12 9,1 C 7,3 C 90 % 1018,6 hPa 0,0 l/m 0 min 0 min 0,0 UV-I 26 W/m 0,0 km/h (0 Bft)
05.06.2013 06:14 9,0 C 7,3 C 90 % 1018,6 hPa 0,0 l/m 0 min 0 min 0,0 UV-I 26 W/m 0,0 km/h (0 Bft)
05.06.2013 06:16 9,0 C 7,3 C 90 % 1018,6 hPa 0,0 l/m 0 min 0 min 0,0 UV-I 28 W/m 0,0 km/h (0 Bft)
05.06.2013 06:18 9,0 C 7,3 C 90 % 1018,6 hPa 0,0 l/m 0 min 0 min 0,0 UV-I 28 W/m 0,0 km/h (0 Bft)
05.06.2013 06:20 9,0 C 7,3 C 93 % 1018,6 hPa 0,0 l/m 0 min 0 min 0,0 UV-I 30 W/m 0,0 km/h (0 Bft)
05.06.2013 06:22 9,0 C 7,3 C 93 % 1018,7 hPa 0,0 l/m 0 min 0 min 0,0 UV-I 30 W/m 0,0 km/h (0 Bft)
05.06.2013 06:24 9,0 C 7,9 C 90 % 1018,6 hPa 0,0 l/m 0 min 0 min 0,0 UV-I 32 W/m 0,0 km/h (0 Bft)
05.06.2013 06:26 9,0 C 7,9 C 90 % 1018,6 hPa 0,0 l/m 0 min 0 min 0,0 UV-I 33 W/m 0,0 km/h (0 Bft)
05.06.2013 06:28 9,0 C 7,9 C 90 % 1018,6 hPa 0,0 l/m 0 min 0 min 0,0 UV-I 33 W/m 0,0 km/h (0 Bft)
05.06.2013 06:30 8,9 C 7,9 C 90 % 1018,6 hPa 0,0 l/m 0 min 0 min 0,0 UV-I 33 W/m 0,0 km/h (0 Bft)
05.06.2013 06:32 8,9 C 7,9 C 90 % 1018,6 hPa 0,0 l/m 0 min 0 min 0,0 UV-I 35 W/m 0,0 km/h (0 Bft)
05.06.2013 06:34 9,0 C 7,9 C 90 % 1018,6 hPa 0,0 l/m 0 min 0 min 0,0 UV-I 35 W/m 0,0 km/h (0 Bft)
05.06.2013 06:36 9,0 C 7,9 C 90 % 1018,6 hPa 0,0 l/m 0 min 0 min 0,0 UV-I 37 W/m 0,0 km/h (0 Bft)
05.06.2013 06:38 9,0 C 7,9 C 90 % 1018,6 hPa 0,0 l/m 0 min 0 min 0,0 UV-I 37 W/m 0,0 km/h (0 Bft)
05.06.2013 06:40 9,0 C 7,9 C 90 % 1018,5 hPa 0,0 l/m 0 min 0 min 0,0 UV-I 39 W/m 0,0 km/h (0 Bft)
05.06.2013 06:42 9,0 C 7,9 C 90 % 1018,6 hPa 0,0 l/m 0 min 0 min 0,0 UV-I 39 W/m 0,0 km/h (0 Bft)
05.06.2013 06:44 9,1 C 7,9 C 90 % 1018,6 hPa 0,0 l/m 0 min 0 min 0,0 UV-I 40 W/m 0,0 km/h (0 Bft)
05.06.2013 06:46 9,1 C 8,4 C 90 % 1018,6 hPa 0,0 l/m 0 min 0 min 0,0 UV-I 40 W/m 0,0 km/h (0 Bft)
05.06.2013 06:48 9,1 C 8,4 C 91 % 1018,6 hPa 0,0 l/m 0 min 0 min 0,0 UV-I 40 W/m 0,0 km/h (0 Bft)
05.06.2013 06:50 9,1 C 8,4 C 91 % 1018,6 hPa 0,0 l/m 0 min 0 min 0,0 UV-I 42 W/m 0,0 km/h (0 Bft)
05.06.2013 06:52 9,2 C 8,4 C 91 % 1018,5 hPa 0,0 l/m 0 min 0 min 0,0 UV-I 42 W/m 0,0 km/h (0 Bft)
05.06.2013 06:54 9,2 C 8,4 C 91 % 1018,6 hPa 0,0 l/m 0 min 0 min 0,0 UV-I 44 W/m 0,0 km/h (0 Bft)
05.06.2013 06:56 9,3 C 8,4 C 91 % 1018,6 hPa 0,0 l/m 0 min 0 min 0,0 UV-I 46 W/m 0,0 km/h (0 Bft)
05.06.2013 06:58 9,3 C 9,0 C 92 % 1018,7 hPa 0,0 l/m 0 min 0 min 0,0 UV-I 46 W/m 0,0 km/h (0 Bft)
05.06.2013 07:00 9,3 C 9,0 C 92 % 1018,6 hPa 0,0 l/m 0 min 0 min 0,0 UV-I 46 W/m 0,0 km/h (0 Bft)
05.06.2013 07:02 9,3 C 9,0 C 92 % 1018,6 hPa 0,0 l/m 0 min 0 min 0,0 UV-I 47 W/m 0,0 km/h (0 Bft)
05.06.2013 07:04 9,4 C 9,0 C 92 % 1018,6 hPa 0,0 l/m 0 min 0 min 0,0 UV-I 49 W/m 0,0 km/h (0 Bft)
05.06.2013 07:06 9,4 C 9,0 C 92 % 1018,6 hPa 0,0 l/m 0 min 0 min 0,0 UV-I 49 W/m 0,0 km/h (0 Bft)
05.06.2013 07:08 9,5 C 9,0 C 92 % 1018,6 hPa 0,0 l/m 0 min 0 min 0,0 UV-I 51 W/m 0,0 km/h (0 Bft)
05.06.2013 07:10 9,6 C 9,6 C 93 % 1018,7 hPa 0,0 l/m 0 min 0 min 0,0 UV-I 51 W/m 0,0 km/h (0 Bft)
05.06.2013 07:12 9,6 C 9,6 C 93 % 1018,7 hPa 0,0 l/m 0 min 0 min 0,0 UV-I 53 W/m 0,0 km/h (0 Bft)
05.06.2013 07:14 9,7 C 9,6 C 93 % 1018,7 hPa 0,0 l/m 0 min 0 min 0,0 UV-I 54 W/m 0,0 km/h (0 Bft)
05.06.2013 07:16 9,8 C 9,6 C 93 % 1018,7 hPa 0,0 l/m 0 min 0 min 0,0 UV-I 54 W/m 0,0 km/h (0 Bft)
05.06.2013 07:18 9,8 C 9,6 C 93 % 1018,6 hPa 0,0 l/m 0 min 0 min 0,0 UV-I 54 W/m 0,0 km/h (0 Bft)
05.06.2013 07:20 9,9 C 9,6 C 93 % 1018,6 hPa 0,0 l/m 0 min 0 min 0,0 UV-I 56 W/m 0,0 km/h (0 Bft)
05.06.2013 07:22 9,9 C 9,6 C 93 % 1018,7 hPa 0,0 l/m 0 min 0 min 0,0 UV-I 58 W/m 0,0 km/h (0 Bft)
05.06.2013 07:24 9,9 C 9,6 C 93 % 1018,6 hPa 0,0 l/m 0 min 0 min 0,0 UV-I 58 W/m 0,0 km/h (0 Bft)
05.06.2013 07:26 10,1 C 10,1 C 93 % 1018,7 hPa 0,0 l/m 0 min 0 min 0,0 UV-I 58 W/m 0,0 km/h (0 Bft)
05.06.2013 07:28 10,2 C 10,1 C 94 % 1018,7 hPa 0,0 l/m 0 min 0 min 0,0 UV-I 60 W/m 0,0 km/h (0 Bft)
05.06.2013 07:30 10,2 C 10,1 C 94 % 1018,7 hPa 0,0 l/m 0 min 0 min 0,0 UV-I 60 W/m 0,0 km/h (0 Bft)
05.06.2013 07:32 10,3 C 10,7 C 94 % 1018,8 hPa 0,0 l/m 0 min 0 min 0,0 UV-I 60 W/m 0,0 km/h (0 Bft)
05.06.2013 07:34 10,4 C 10,7 C 94 % 1018,7 hPa 0,0 l/m 0 min 0 min 0,0 UV-I 62 W/m 0,0 km/h (0 Bft)
05.06.2013 07:36 10,5 C 10,7 C 94 % 1018,7 hPa 0,0 l/m 0 min 0 min 0,0 UV-I 63 W/m 0,0 km/h (0 Bft)
05.06.2013 07:38 10,6 C 10,7 C 94 % 1018,7 hPa 0,0 l/m 0 min 0 min 0,0 UV-I 63 W/m 0,0 km/h (0 Bft)
05.06.2013 07:40 10,7 C 10,7 C 94 % 1018,8 hPa 0,0 l/m 0 min 0 min 0,0 UV-I 63 W/m 0,0 km/h (0 Bft)
05.06.2013 07:42 10,7 C 10,7 C 94 % 1018,9 hPa 0,0 l/m 0 min 0 min 0,0 UV-I 65 W/m 0,0 km/h (0 Bft)
05.06.2013 07:44 10,8 C 10,7 C 94 % 1018,9 hPa 0,0 l/m 0 min 0 min 0,0 UV-I 67 W/m 0,0 km/h (0 Bft)
05.06.2013 07:46 10,9 C 10,7 C 94 % 1018,9 hPa 0,0 l/m 0 min 0 min 0,0 UV-I 67 W/m 0,0 km/h (0 Bft)
05.06.2013 07:48 10,9 C 11,2 C 94 % 1018,9 hPa 0,0 l/m 0 min 0 min 0,0 UV-I 69 W/m 0,0 km/h (0 Bft)
05.06.2013 07:50 11,1 C 11,2 C 94 % 1018,9 hPa 0,0 l/m 0 min 0 min 0,0 UV-I 172 W/m 2,6 km/h (1 Bft)
05.06.2013 07:52 11,1 C 11,2 C 94 % 1018,8 hPa 0,0 l/m 2 min 0 min 0,0 UV-I 253 W/m 0,0 km/h (0 Bft)
05.06.2013 07:54 11,2 C 11,2 C 94 % 1018,9 hPa 0,0 l/m 2 min 0 min 0,0 UV-I 258 W/m 0,0 km/h (0 Bft)
05.06.2013 07:56 11,2 C 11,2 C 94 % 1018,9 hPa 0,0 l/m 2 min 0 min 0,0 UV-I 258 W/m 0,0 km/h (0 Bft)
05.06.2013 07:58 11,3 C 11,2 C 94 % 1018,9 hPa 0,0 l/m 2 min 0 min 0,0 UV-I 262 W/m 0,0 km/h (0 Bft)
05.06.2013 08:00 11,4 C 11,2 C 94 % 1018,9 hPa 0,0 l/m 2 min 0 min 0,0 UV-I 269 W/m 0,0 km/h (0 Bft)
05.06.2013 08:02 11,4 C 11,2 C 94 % 1019,0 hPa 0,0 l/m 2 min 0 min 0,0 UV-I 274 W/m 0,0 km/h (0 Bft)
05.06.2013 08:04 11,5 C 11,2 C 93 % 1019,0 hPa 0,0 l/m 2 min 0 min 0,0 UV-I 281 W/m 0,0 km/h (0 Bft)
05.06.2013 08:06 11,6 C 11,2 C 93 % 1019,0 hPa 0,0 l/m 2 min 0 min 0,0 UV-I 288 W/m 0,0 km/h (0 Bft)
05.06.2013 08:08 11,7 C 11,8 C 93 % 1018,8 hPa 0,0 l/m 2 min 0 min 0,0 UV-I 294 W/m 0,0 km/h (0 Bft)
05.06.2013 08:10 11,7 C 11,8 C 93 % 1018,8 hPa 0,0 l/m 2 min 0 min 0,0 UV-I 299 W/m 0,0 km/h (0 Bft)
05.06.2013 08:12 11,8 C 11,8 C 93 % 1018,8 hPa 0,0 l/m 2 min 0 min 0,0 UV-I 306 W/m 0,0 km/h (0 Bft)
05.06.2013 08:14 11,8 C 11,8 C 93 % 1018,7 hPa 0,0 l/m 2 min 0 min 0,0 UV-I 309 W/m 0,0 km/h (0 Bft)
05.06.2013 08:16 11,9 C 11,8 C 93 % 1018,8 hPa 0,0 l/m 2 min 0 min 0,0 UV-I 313 W/m 0,0 km/h (0 Bft)
05.06.2013 08:18 12,0 C 11,8 C 93 % 1018,8 hPa 0,0 l/m 2 min 0 min 0,0 UV-I 325 W/m 0,0 km/h (0 Bft)
05.06.2013 08:20 12,1 C 12,3 C 93 % 1018,8 hPa 0,0 l/m 2 min 0 min 0,0 UV-I 330 W/m 2,6 km/h (1 Bft)
05.06.2013 08:22 12,2 C 12,3 C 92 % 1018,8 hPa 0,0 l/m 2 min 0 min 0,0 UV-I 322 W/m 0,0 km/h (0 Bft)
05.06.2013 08:24 12,3 C 12,3 C 92 % 1018,8 hPa 0,0 l/m 2 min 0 min 0,0 UV-I 323 W/m 2,6 km/h (1 Bft)
05.06.2013 08:26 12,4 C 12,3 C 92 % 1018,8 hPa 0,0 l/m 2 min 0 min 0,0 UV-I 334 W/m 0,0 km/h (0 Bft)
05.06.2013 08:28 12,5 C 12,3 C 92 % 1018,8 hPa 0,0 l/m 2 min 0 min 0,0 UV-I 341 W/m 0,0 km/h (0 Bft)
05.06.2013 08:30 12,6 C 12,9 C 92 % 1018,8 hPa 0,0 l/m 2 min 0 min 0,0 UV-I 334 W/m 0,0 km/h (0 Bft)
05.06.2013 08:32 12,7 C 12,9 C 91 % 1018,7 hPa 0,0 l/m 2 min 0 min 0,0 UV-I 332 W/m 0,0 km/h (0 Bft)
05.06.2013 08:34 12,8 C 12,9 C 91 % 1018,8 hPa 0,0 l/m 2 min 0 min 0,0 UV-I 339 W/m 0,0 km/h (0 Bft)
05.06.2013 08:36 12,9 C 12,9 C 91 % 1018,8 hPa 0,0 l/m 2 min 0 min 0,0 UV-I 353 W/m 0,0 km/h (0 Bft)
05.06.2013 08:38 13,0 C 12,9 C 91 % 1018,7 hPa 0,0 l/m 2 min 0 min 0,5 UV-I 366 W/m 0,0 km/h (0 Bft)
05.06.2013 08:40 13,1 C 12,9 C 90 % 1018,7 hPa 0,0 l/m 2 min 0 min 0,5 UV-I 373 W/m 0,0 km/h (0 Bft)
05.06.2013 08:42 13,2 C 12,9 C 90 % 1018,7 hPa 0,0 l/m 2 min 0 min 0,5 UV-I 383 W/m 0,0 km/h (0 Bft)
05.06.2013 08:44 13,4 C 12,9 C 90 % 1018,8 hPa 0,0 l/m 2 min 0 min 0,6 UV-I 394 W/m 0,0 km/h (0 Bft)
05.06.2013 08:46 13,6 C 13,4 C 90 % 1018,7 hPa 0,0 l/m 2 min 0 min 0,6 UV-I 399 W/m 0,0 km/h (0 Bft)
05.06.2013 08:48 13,7 C 13,4 C 89 % 1018,7 hPa 0,0 l/m 2 min 0 min 0,6 UV-I 397 W/m 2,6 km/h (1 Bft)
05.06.2013 08:50 13,9 C 14,0 C 89 % 1018,7 hPa 0,0 l/m 2 min 0 min 0,7 UV-I 406 W/m 0,0 km/h (0 Bft)
05.06.2013 08:52 14,0 C 14,0 C 88 % 1018,7 hPa 0,0 l/m 2 min 0 min 0,7 UV-I 413 W/m 0,0 km/h (0 Bft)
05.06.2013 08:54 14,1 C 14,0 C 87 % 1018,8 hPa 0,0 l/m 2 min 0 min 0,7 UV-I 415 W/m 0,0 km/h (0 Bft)
05.06.2013 08:56 14,3 C 14,0 C 87 % 1018,7 hPa 0,0 l/m 2 min 0 min 0,8 UV-I 422 W/m 2,6 km/h (1 Bft)
05.06.2013 08:58 14,5 C 14,6 C 86 % 1018,8 hPa 0,0 l/m 2 min 0 min 0,8 UV-I 429 W/m 0,0 km/h (0 Bft)
05.06.2013 09:00 14,7 C 14,6 C 86 % 1018,8 hPa 0,0 l/m 2 min 0 min 0,9 UV-I 436 W/m 0,0 km/h (0 Bft)
05.06.2013 09:02 14,8 C 14,6 C 85 % 1018,8 hPa 0,0 l/m 2 min 0 min 0,9 UV-I 441 W/m 2,6 km/h (1 Bft)
05.06.2013 09:04 15,1 C 15,1 C 84 % 1018,8 hPa 0,0 l/m 2 min 0 min 0,9 UV-I 439 W/m 0,0 km/h (0 Bft)
05.06.2013 09:06 15,3 C 15,1 C 83 % 1018,8 hPa 0,0 l/m 2 min 0 min 1,0 UV-I 450 W/m 0,0 km/h (0 Bft)
05.06.2013 09:08 15,5 C 15,1 C 83 % 1018,8 hPa 0,0 l/m 2 min 0 min 1,0 UV-I 455 W/m 0,0 km/h (0 Bft)
05.06.2013 09:10 15,7 C 15,7 C 82 % 1018,8 hPa 0,0 l/m 2 min 0 min 1,0 UV-I 461 W/m 2,6 km/h (1 Bft)
05.06.2013 09:12 15,9 C 15,1 C 81 % 1018,8 hPa 0,0 l/m 2 min 0 min 1,1 UV-I 461 W/m 2,6 km/h (1 Bft)
05.06.2013 09:14 16,1 C 15,1 C 81 % 1018,8 hPa 0,0 l/m 2 min 0 min 1,1 UV-I 464 W/m 0,0 km/h (0 Bft)
05.06.2013 09:16 16,3 C 15,7 C 80 % 1018,8 hPa 0,0 l/m 2 min 0 min 1,1 UV-I 476 W/m 0,0 km/h (0 Bft)
05.06.2013 09:18 16,5 C 15,7 C 79 % 1018,8 hPa 0,0 l/m 2 min 0 min 1,2 UV-I 482 W/m 0,0 km/h (0 Bft)
05.06.2013 09:20 16,7 C 15,7 C 79 % 1018,8 hPa 0,0 l/m 2 min 0 min 1,2 UV-I 487 W/m 0,0 km/h (0 Bft)
05.06.2013 09:22 16,9 C 15,7 C 79 % 1018,8 hPa 0,0 l/m 2 min 0 min 1,2 UV-I 492 W/m 2,6 km/h (1 Bft)
05.06.2013 09:24 17,1 C 15,7 C 78 % 1018,8 hPa 0,0 l/m 2 min 0 min 1,3 UV-I 496 W/m 2,6 km/h (1 Bft)
05.06.2013 09:26 17,3 C 15,7 C 77 % 1018,7 hPa 0,0 l/m 2 min 0 min 1,3 UV-I 487 W/m 2,6 km/h (1 Bft)
05.06.2013 09:28 17,4 C 15,7 C 77 % 1018,8 hPa 0,0 l/m 2 min 0 min 1,3 UV-I 480 W/m 0,0 km/h (0 Bft)
05.06.2013 09:30 17,7 C 16,2 C 77 % 1018,8 hPa 0,0 l/m 2 min 0 min 1,3 UV-I 483 W/m 2,6 km/h (1 Bft)
05.06.2013 09:32 17,8 C 16,2 C 76 % 1018,7 hPa 0,0 l/m 2 min 0 min 1,4 UV-I 487 W/m 2,6 km/h (1 Bft)
05.06.2013 09:34 17,9 C 16,2 C 75 % 1018,8 hPa 0,0 l/m 2 min 0 min 1,4 UV-I 494 W/m 2,6 km/h (1 Bft)
05.06.2013 09:36 18,1 C 16,2 C 75 % 1018,8 hPa 0,0 l/m 2 min 0 min 1,4 UV-I 503 W/m 0,0 km/h (0 Bft)
05.06.2013 09:38 18,3 C 16,2 C 74 % 1018,8 hPa 0,0 l/m 2 min 0 min 1,5 UV-I 510 W/m 0,0 km/h (0 Bft)
05.06.2013 09:40 18,4 C 16,2 C 74 % 1018,8 hPa 0,0 l/m 2 min 0 min 1,5 UV-I 517 W/m 0,0 km/h (0 Bft)
05.06.2013 09:42 18,6 C 16,8 C 73 % 1018,8 hPa 0,0 l/m 2 min 0 min 1,6 UV-I 524 W/m 0,0 km/h (0 Bft)
05.06.2013 09:44 18,7 C 16,8 C 72 % 1018,7 hPa 0,0 l/m 2 min 0 min 1,6 UV-I 531 W/m 2,6 km/h (1 Bft)
05.06.2013 09:46 18,8 C 16,8 C 72 % 1018,7 hPa 0,0 l/m 2 min 0 min 1,7 UV-I 547 W/m 0,0 km/h (0 Bft)
05.06.2013 09:48 18,9 C 17,3 C 71 % 1018,7 hPa 0,0 l/m 2 min 0 min 1,7 UV-I 554 W/m 2,6 km/h (1 Bft)
05.06.2013 09:50 18,9 C 17,3 C 71 % 1018,7 hPa 0,0 l/m 2 min 0 min 1,7 UV-I 555 W/m 0,0 km/h (0 Bft)
05.06.2013 09:52 19,1 C 17,9 C 71 % 1018,7 hPa 0,0 l/m 2 min 0 min 1,8 UV-I 566 W/m 0,0 km/h (0 Bft)
05.06.2013 09:54 19,1 C 18,4 C 70 % 1018,7 hPa 0,0 l/m 2 min 0 min 1,8 UV-I 570 W/m 0,0 km/h (0 Bft)
05.06.2013 09:56 19,2 C 19,0 C 70 % 1018,6 hPa 0,0 l/m 2 min 0 min 1,9 UV-I 571 W/m 0,0 km/h (0 Bft)
05.06.2013 09:58 19,3 C 19,6 C 70 % 1018,7 hPa 0,0 l/m 2 min 0 min 1,9 UV-I 578 W/m 2,6 km/h (1 Bft)
05.06.2013 10:00 19,4 C 21,2 C 70 % 1018,6 hPa 0,0 l/m 2 min 0 min 1,9 UV-I 580 W/m 0,0 km/h (0 Bft)
05.06.2013 10:02 19,4 C 23,4 C 70 % 1018,6 hPa 0,0 l/m 2 min 0 min 2,0 UV-I 582 W/m 0,0 km/h (0 Bft)
05.06.2013 10:04 19,6 C 25,1 C 70 % 1018,6 hPa 0,0 l/m 2 min 0 min 2,0 UV-I 587 W/m 0,0 km/h (0 Bft)
05.06.2013 10:06 19,7 C 25,7 C 68 % 1018,6 hPa 0,0 l/m 2 min 0 min 2,0 UV-I 589 W/m 2,6 km/h (1 Bft)
05.06.2013 10:08 19,7 C 25,7 C 67 % 1018,6 hPa 0,0 l/m 2 min 0 min 2,1 UV-I 596 W/m 0,0 km/h (0 Bft)
05.06.2013 10:10 19,8 C 26,2 C 68 % 1018,6 hPa 0,0 l/m 2 min 0 min 2,1 UV-I 598 W/m 2,6 km/h (1 Bft)
05.06.2013 10:12 19,9 C 26,2 C 68 % 1018,6 hPa 0,0 l/m 2 min 0 min 2,2 UV-I 603 W/m 0,0 km/h (0 Bft)
05.06.2013 10:14 20,0 C 26,2 C 67 % 1018,6 hPa 0,0 l/m 2 min 0 min 2,2 UV-I 610 W/m 0,0 km/h (0 Bft)
05.06.2013 10:16 20,1 C 27,3 C 67 % 1018,6 hPa 0,0 l/m 2 min 0 min 2,2 UV-I 613 W/m 0,0 km/h (0 Bft)
05.06.2013 10:18 20,2 C 27,3 C 67 % 1018,6 hPa 0,0 l/m 2 min 0 min 2,3 UV-I 619 W/m 2,6 km/h (1 Bft)
05.06.2013 10:20 20,3 C 26,2 C 66 % 1018,6 hPa 0,0 l/m 2 min 0 min 2,3 UV-I 622 W/m 0,0 km/h (0 Bft)
05.06.2013 10:22 20,4 C 26,8 C 67 % 1018,5 hPa 0,0 l/m 2 min 0 min 2,4 UV-I 626 W/m 0,0 km/h (0 Bft)
05.06.2013 10:24 20,4 C 26,2 C 66 % 1018,6 hPa 0,0 l/m 2 min 0 min 2,4 UV-I 629 W/m 0,0 km/h (0 Bft)
05.06.2013 10:26 20,6 C 26,8 C 66 % 1018,5 hPa 0,0 l/m 2 min 0 min 2,4 UV-I 636 W/m 0,0 km/h (0 Bft)
05.06.2013 10:28 20,7 C 27,3 C 68 % 1018,5 hPa 0,0 l/m 2 min 0 min 2,5 UV-I 640 W/m 0,0 km/h (0 Bft)
05.06.2013 10:30 20,8 C 26,8 C 66 % 1018,5 hPa 0,0 l/m 2 min 0 min 2,5 UV-I 647 W/m 0,0 km/h (0 Bft)
05.06.2013 10:32 20,8 C 28,4 C 66 % 1018,5 hPa 0,0 l/m 2 min 0 min 2,6 UV-I 650 W/m 2,6 km/h (1 Bft)
05.06.2013 10:34 20,9 C 28,4 C 64 % 1018,4 hPa 0,0 l/m 2 min 0 min 2,6 UV-I 652 W/m 0,0 km/h (0 Bft)
05.06.2013 10:36 21,0 C 28,4 C 66 % 1018,4 hPa 0,0 l/m 2 min 0 min 2,7 UV-I 657 W/m 0,0 km/h (0 Bft)
05.06.2013 10:38 21,2 C 29,0 C 66 % 1018,5 hPa 0,0 l/m 2 min 0 min 2,7 UV-I 663 W/m 2,6 km/h (1 Bft)
05.06.2013 10:40 21,2 C 27,9 C 64 % 1018,4 hPa 0,0 l/m 2 min 0 min 2,8 UV-I 664 W/m 0,0 km/h (0 Bft)
05.06.2013 10:42 21,3 C 27,9 C 64 % 1018,5 hPa 0,0 l/m 2 min 0 min 2,8 UV-I 670 W/m 0,0 km/h (0 Bft)
05.06.2013 10:44 21,3 C 27,3 C 64 % 1018,4 hPa 0,0 l/m 2 min 0 min 2,8 UV-I 673 W/m 10,3 km/h (2 Bft)
05.06.2013 10:46 21,3 C 26,2 C 63 % 1018,5 hPa 0,0 l/m 2 min 0 min 2,9 UV-I 680 W/m 10,3 km/h (2 Bft)
05.06.2013 10:48 21,2 C 26,2 C 63 % 1018,4 hPa 0,0 l/m 2 min 0 min 2,9 UV-I 684 W/m 10,3 km/h (2 Bft)
05.06.2013 10:50 21,2 C 26,8 C 63 % 1018,4 hPa 0,0 l/m 2 min 0 min 3,0 UV-I 691 W/m 5,1 km/h (1 Bft)
05.06.2013 10:52 21,2 C 27,9 C 64 % 1018,4 hPa 0,0 l/m 2 min 0 min 3,0 UV-I 694 W/m 0,0 km/h (0 Bft)
05.06.2013 10:54 21,2 C 27,3 C 63 % 1018,4 hPa 0,0 l/m 2 min 0 min 3,0 UV-I 696 W/m 2,6 km/h (1 Bft)
05.06.2013 10:56 21,2 C 28,4 C 64 % 1018,4 hPa 0,0 l/m 2 min 0 min 3,1 UV-I 701 W/m 5,1 km/h (1 Bft)
05.06.2013 10:58 21,3 C 27,3 C 64 % 1018,4 hPa 0,0 l/m 2 min 0 min 3,1 UV-I 707 W/m 10,3 km/h (2 Bft)
05.06.2013 11:00 21,3 C 27,3 C 64 % 1018,4 hPa 0,0 l/m 2 min 0 min 3,1 UV-I 708 W/m 2,6 km/h (1 Bft)
05.06.2013 11:02 21,3 C 27,9 C 65 % 1018,4 hPa 0,0 l/m 2 min 0 min 3,2 UV-I 712 W/m 0,0 km/h (0 Bft)
05.06.2013 11:04 21,3 C 26,2 C 62 % 1018,4 hPa 0,0 l/m 2 min 0 min 3,2 UV-I 715 W/m 15,4 km/h (3 Bft)
05.06.2013 11:06 21,3 C 26,2 C 60 % 1018,3 hPa 0,0 l/m 2 min 0 min 3,3 UV-I 719 W/m 12,9 km/h (3 Bft)
05.06.2013 11:08 21,3 C 26,2 C 61 % 1018,4 hPa 0,0 l/m 2 min 0 min 3,3 UV-I 719 W/m 12,9 km/h (3 Bft)
05.06.2013 11:10 21,3 C 26,2 C 63 % 1018,3 hPa 0,0 l/m 2 min 0 min 3,3 UV-I 721 W/m 2,6 km/h (1 Bft)
05.06.2013 11:12 21,3 C 25,7 C 62 % 1018,3 hPa 0,0 l/m 2 min 0 min 3,3 UV-I 724 W/m 2,6 km/h (1 Bft)
05.06.2013 11:14 21,3 C 27,3 C 63 % 1018,3 hPa 0,0 l/m 2 min 0 min 3,4 UV-I 733 W/m 0,0 km/h (0 Bft)
05.06.2013 11:16 21,4 C 26,8 C 64 % 1018,4 hPa 0,0 l/m 2 min 0 min 3,4 UV-I 731 W/m 2,6 km/h (1 Bft)
05.06.2013 11:18 21,5 C 27,9 C 63 % 1018,4 hPa 0,0 l/m 2 min 0 min 3,4 UV-I 731 W/m 2,6 km/h (1 Bft)
05.06.2013 11:20 21,6 C 28,4 C 62 % 1018,3 hPa 0,0 l/m 2 min 0 min 3,5 UV-I 738 W/m 2,6 km/h (1 Bft)
05.06.2013 11:22 21,7 C 27,9 C 62 % 1018,4 hPa 0,0 l/m 2 min 0 min 3,5 UV-I 744 W/m 10,3 km/h (2 Bft)
05.06.2013 11:24 21,6 C 27,9 C 62 % 1018,3 hPa 0,0 l/m 2 min 0 min 3,6 UV-I 744 W/m 10,3 km/h (2 Bft)
05.06.2013 11:26 21,4 C 28,4 C 61 % 1018,3 hPa 0,0 l/m 2 min 0 min 3,6 UV-I 747 W/m 0,0 km/h (0 Bft)
05.06.2013 11:28 21,4 C 28,4 C 63 % 1018,3 hPa 0,0 l/m 2 min 0 min 3,6 UV-I 752 W/m 2,6 km/h (1 Bft)
05.06.2013 11:30 21,3 C 27,3 C 63 % 1018,3 hPa 0,0 l/m 2 min 0 min 3,7 UV-I 754 W/m 7,7 km/h (2 Bft)
05.06.2013 11:32 21,3 C 27,9 C 63 % 1018,3 hPa 0,0 l/m 2 min 0 min 3,7 UV-I 756 W/m 2,6 km/h (1 Bft)
05.06.2013 11:34 21,2 C 27,3 C 64 % 1018,3 hPa 0,0 l/m 2 min 0 min 3,7 UV-I 754 W/m 10,3 km/h (2 Bft)
05.06.2013 11:36 21,1 C 27,9 C 68 % 1018,2 hPa 0,0 l/m 2 min 0 min 3,7 UV-I 761 W/m 5,1 km/h (1 Bft)
05.06.2013 11:38 21,1 C 27,3 C 64 % 1018,3 hPa 0,0 l/m 2 min 0 min 3,7 UV-I 759 W/m 10,3 km/h (2 Bft)
05.06.2013 11:40 21,1 C 26,2 C 62 % 1018,3 hPa 0,0 l/m 2 min 0 min 3,7 UV-I 758 W/m 12,9 km/h (3 Bft)
05.06.2013 11:42 21,1 C 26,2 C 64 % 1018,3 hPa 0,0 l/m 2 min 0 min 3,8 UV-I 782 W/m 5,1 km/h (1 Bft)
05.06.2013 11:44 21,4 C 26,2 C 63 % 1018,2 hPa 0,0 l/m 2 min 0 min 3,9 UV-I 793 W/m 2,6 km/h (1 Bft)
05.06.2013 11:46 21,6 C 25,1 C 64 % 1018,3 hPa 0,0 l/m 2 min 0 min 2,6 UV-I 810 W/m 0,0 km/h (0 Bft)
05.06.2013 11:48 21,3 C 24,6 C 62 % 1018,3 hPa 0,0 l/m 2 min 0 min 3,8 UV-I 768 W/m 0,0 km/h (0 Bft)
05.06.2013 11:50 21,3 C 24,6 C 62 % 1018,3 hPa 0,0 l/m 2 min 0 min 3,8 UV-I 759 W/m 12,9 km/h (3 Bft)
05.06.2013 11:52 21,3 C 25,7 C 64 % 1018,2 hPa 0,0 l/m 2 min 0 min 4,0 UV-I 791 W/m 7,7 km/h (2 Bft)
05.06.2013 11:54 21,6 C 27,3 C 61 % 1018,2 hPa 0,0 l/m 2 min 0 min 4,0 UV-I 802 W/m 7,7 km/h (2 Bft)
05.06.2013 11:56 21,5 C 27,3 C 62 % 1018,2 hPa 0,0 l/m 2 min 0 min 4,0 UV-I 805 W/m 0,0 km/h (0 Bft)
05.06.2013 11:58 21,6 C 27,9 C 62 % 1018,2 hPa 0,0 l/m 2 min 0 min 4,0 UV-I 823 W/m 2,6 km/h (1 Bft)
05.06.2013 12:00 21,4 C 29,0 C 61 % 1018,2 hPa 0,0 l/m 2 min 0 min 4,0 UV-I 830 W/m 10,3 km/h (2 Bft)
05.06.2013 12:02 21,4 C 29,0 C 60 % 1018,1 hPa 0,0 l/m 2 min 0 min 4,0 UV-I 824 W/m 18,0 km/h (3 Bft)
05.06.2013 12:04 21,6 C 29,6 C 61 % 1018,2 hPa 0,0 l/m 2 min 0 min 4,1 UV-I 842 W/m 12,9 km/h (3 Bft)
05.06.2013 12:06 21,8 C 30,1 C 61 % 1018,1 hPa 0,0 l/m 2 min 0 min 4,2 UV-I 858 W/m 10,3 km/h (2 Bft)
05.06.2013 12:08 22,1 C 29,6 C 60 % 1018,0 hPa 0,0 l/m 2 min 0 min 4,3 UV-I 861 W/m 10,3 km/h (2 Bft)
05.06.2013 12:10 21,9 C 28,4 C 58 % 1018,2 hPa 0,0 l/m 2 min 0 min 4,4 UV-I 875 W/m 20,6 km/h (4 Bft)
05.06.2013 12:12 21,8 C 30,1 C 61 % 1018,2 hPa 0,0 l/m 2 min 0 min 4,4 UV-I 896 W/m 5,1 km/h (1 Bft)
05.06.2013 12:14 21,9 C 29,6 C 60 % 1018,2 hPa 0,0 l/m 2 min 0 min 4,3 UV-I 914 W/m 18,0 km/h (3 Bft)
05.06.2013 12:16 21,8 C 29,0 C 58 % 1018,2 hPa 0,0 l/m 2 min 0 min 4,4 UV-I 944 W/m 7,7 km/h (2 Bft)
05.06.2013 12:18 21,6 C 29,0 C 59 % 1018,2 hPa 0,0 l/m 2 min 0 min 4,3 UV-I 912 W/m 10,3 km/h (2 Bft)
05.06.2013 12:20 21,8 C 30,1 C 60 % 1018,2 hPa 0,0 l/m 2 min 0 min 4,5 UV-I 925 W/m 7,7 km/h (2 Bft)
05.06.2013 12:22 21,9 C 30,7 C 60 % 1018,2 hPa 0,0 l/m 2 min 0 min 4,5 UV-I 930 W/m 7,7 km/h (2 Bft)
05.06.2013 12:24 21,9 C 30,1 C 58 % 1018,1 hPa 0,0 l/m 2 min 0 min 4,0 UV-I 930 W/m 2,6 km/h (1 Bft)
05.06.2013 12:26 21,9 C 27,3 C 59 % 1018,1 hPa 0,0 l/m 0 min 0 min 2,4 UV-I 255 W/m 7,7 km/h (2 Bft)
05.06.2013 12:28 21,8 C 25,7 C 60 % 1018,1 hPa 0,0 l/m 0 min 0 min 2,6 UV-I 294 W/m 10,3 km/h (2 Bft)
05.06.2013 12:30 21,8 C 26,2 C 59 % 1018,1 hPa 0,0 l/m 0 min 0 min 2,5 UV-I 294 W/m 15,4 km/h (3 Bft)
05.06.2013 12:32 21,7 C 25,1 C 58 % 1018,1 hPa 0,0 l/m 0 min 0 min 2,4 UV-I 239 W/m 10,3 km/h (2 Bft)
05.06.2013 12:34 21,4 C 24,0 C 60 % 1018,0 hPa 0,0 l/m 0 min 0 min 2,5 UV-I 239 W/m 0,0 km/h (0 Bft)
05.06.2013 12:36 21,4 C 25,1 C 60 % 1018,1 hPa 0,0 l/m 0 min 0 min 4,7 UV-I 239 W/m 2,6 km/h (1 Bft)
05.06.2013 12:38 21,7 C 26,8 C 58 % 1018,0 hPa 0,0 l/m 2 min 0 min 4,8 UV-I 921 W/m 10,3 km/h (2 Bft)
05.06.2013 12:40 21,8 C 29,0 C 59 % 1017,9 hPa 0,0 l/m 2 min 0 min 4,6 UV-I 882 W/m 0,0 km/h (0 Bft)
05.06.2013 12:42 21,8 C 29,6 C 57 % 1017,9 hPa 0,0 l/m 2 min 0 min 4,6 UV-I 877 W/m 15,4 km/h (3 Bft)
05.06.2013 12:44 21,7 C 28,4 C 55 % 1017,9 hPa 0,0 l/m 2 min 0 min 4,7 UV-I 888 W/m 18,0 km/h (3 Bft)
05.06.2013 12:46 21,7 C 28,4 C 57 % 1017,9 hPa 0,0 l/m 2 min 0 min 4,4 UV-I 895 W/m 10,3 km/h (2 Bft)
05.06.2013 12:48 21,9 C 30,1 C 58 % 1017,9 hPa 0,0 l/m 2 min 0 min 4,6 UV-I 905 W/m 7,7 km/h (2 Bft)
05.06.2013 12:50 22,1 C 31,2 C 58 % 1017,8 hPa 0,0 l/m 2 min 0 min 4,4 UV-I 911 W/m 0,0 km/h (0 Bft)
05.06.2013 12:52 22,6 C 30,1 C 54 % 1017,8 hPa 0,0 l/m 2 min 0 min 2,3 UV-I 893 W/m 2,6 km/h (1 Bft)
05.06.2013 12:54 22,4 C 27,9 C 56 % 1017,8 hPa 0,0 l/m 0 min 0 min 2,2 UV-I 193 W/m 0,0 km/h (0 Bft)
05.06.2013 12:56 22,2 C 25,7 C 55 % 1017,8 hPa 0,0 l/m 0 min 0 min 2,2 UV-I 178 W/m 2,6 km/h (1 Bft)
05.06.2013 12:58 21,9 C 24,6 C 56 % 1017,9 hPa 0,0 l/m 0 min 0 min 2,3 UV-I 190 W/m 12,9 km/h (3 Bft)
05.06.2013 13:00 21,7 C 24,0 C 55 % 1017,9 hPa 0,0 l/m 0 min 0 min 2,5 UV-I 262 W/m 10,3 km/h (2 Bft)
05.06.2013 13:02 21,6 C 25,1 C 56 % 1017,8 hPa 0,0 l/m 0 min 0 min 2,5 UV-I 297 W/m 10,3 km/h (2 Bft)
05.06.2013 13:04 21,7 C 25,7 C 58 % 1017,8 hPa 0,0 l/m 0 min 0 min 2,5 UV-I 336 W/m 2,6 km/h (1 Bft)
05.06.2013 13:06 21,6 C 24,6 C 54 % 1017,8 hPa 0,0 l/m 0 min 0 min 2,3 UV-I 197 W/m 2,6 km/h (1 Bft)
05.06.2013 13:08 21,6 C 25,1 C 56 % 1017,7 hPa 0,0 l/m 0 min 0 min 2,5 UV-I 197 W/m 10,3 km/h (2 Bft)
05.06.2013 13:10 21,6 C 26,2 C 56 % 1017,7 hPa 0,0 l/m 2 min 0 min 2,6 UV-I 954 W/m 10,3 km/h (2 Bft)
05.06.2013 13:12 21,8 C 27,3 C 55 % 1017,7 hPa 0,0 l/m 2 min 0 min 2,5 UV-I 954 W/m 2,6 km/h (1 Bft)
05.06.2013 13:14 21,8 C 27,3 C 55 % 1017,8 hPa 0,0 l/m 2 min 0 min 2,4 UV-I 925 W/m 15,4 km/h (3 Bft)
05.06.2013 13:16 21,7 C 27,3 C 54 % 1017,7 hPa 0,0 l/m 2 min 0 min 2,2 UV-I 907 W/m 12,9 km/h (3 Bft)
05.06.2013 13:18 21,7 C 25,1 C 56 % 1017,7 hPa 0,0 l/m 0 min 0 min 2,2 UV-I 281 W/m 10,3 km/h (2 Bft)
05.06.2013 13:20 21,7 C 25,7 C 60 % 1017,7 hPa 0,0 l/m 0 min 0 min 2,2 UV-I 271 W/m 7,7 km/h (2 Bft)
05.06.2013 13:22 21,9 C 24,6 C 57 % 1017,7 hPa 0,0 l/m 0 min 0 min 2,1 UV-I 190 W/m 0,0 km/h (0 Bft)
05.06.2013 13:24 21,9 C 23,4 C 58 % 1017,7 hPa 0,0 l/m 0 min 0 min 1,9 UV-I 206 W/m 7,7 km/h (2 Bft)
05.06.2013 13:26 21,8 C 22,9 C 55 % 1017,7 hPa 0,0 l/m 0 min 0 min 2,0 UV-I 292 W/m 10,3 km/h (2 Bft)
05.06.2013 13:28 21,9 C 24,6 C 57 % 1017,7 hPa 0,0 l/m 2 min 0 min 2,0 UV-I 940 W/m 10,3 km/h (2 Bft)
05.06.2013 13:30 21,9 C 23,4 C 55 % 1017,7 hPa 0,0 l/m 0 min 0 min 1,9 UV-I 267 W/m 7,7 km/h (2 Bft)
05.06.2013 13:32 21,9 C 22,9 C 56 % 1017,7 hPa 0,0 l/m 0 min 0 min 1,9 UV-I 271 W/m 2,6 km/h (1 Bft)
05.06.2013 13:34 21,8 C 22,9 C 55 % 1017,7 hPa 0,0 l/m 0 min 0 min 1,9 UV-I 290 W/m 2,6 km/h (1 Bft)
05.06.2013 13:36 21,7 C 22,3 C 57 % 1017,7 hPa 0,0 l/m 0 min 0 min 2,2 UV-I 315 W/m 12,9 km/h (3 Bft)
05.06.2013 13:38 21,7 C 22,9 C 57 % 1017,7 hPa 0,0 l/m 0 min 0 min 2,4 UV-I 329 W/m 10,3 km/h (2 Bft)
05.06.2013 13:40 21,8 C 24,0 C 54 % 1017,7 hPa 0,0 l/m 2 min 0 min 2,7 UV-I 960 W/m 2,6 km/h (1 Bft)
05.06.2013 13:42 21,9 C 23,4 C 55 % 1017,7 hPa 0,0 l/m 0 min 0 min 2,4 UV-I 332 W/m 12,9 km/h (3 Bft)
05.06.2013 13:44 21,8 C 22,9 C 55 % 1017,7 hPa 0,0 l/m 0 min 0 min 3,0 UV-I 387 W/m 10,3 km/h (2 Bft)
05.06.2013 13:46 21,8 C 22,9 C 53 % 1017,7 hPa 0,0 l/m 0 min 0 min 2,2 UV-I 253 W/m 10,3 km/h (2 Bft)
05.06.2013 13:48 21,7 C 22,3 C 53 % 1017,7 hPa 0,0 l/m 0 min 0 min 2,1 UV-I 232 W/m 2,6 km/h (1 Bft)
05.06.2013 13:50 21,6 C 22,3 C 56 % 1017,6 hPa 0,0 l/m 0 min 0 min 1,9 UV-I 221 W/m 0,0 km/h (0 Bft)
05.06.2013 13:52 21,7 C 22,3 C 55 % 1017,7 hPa 0,0 l/m 0 min 0 min 1,9 UV-I 223 W/m 0,0 km/h (0 Bft)
05.06.2013 13:54 21,8 C 22,3 C 55 % 1017,7 hPa 0,0 l/m 0 min 0 min 1,9 UV-I 260 W/m 0,0 km/h (0 Bft)
05.06.2013 13:56 21,8 C 22,3 C 56 % 1017,7 hPa 0,0 l/m 0 min 0 min 1,9 UV-I 251 W/m 2,6 km/h (1 Bft)
05.06.2013 13:58 21,7 C 22,3 C 54 % 1017,7 hPa 0,0 l/m 0 min 0 min 2,0 UV-I 271 W/m 0,0 km/h (0 Bft)
05.06.2013 14:00 21,6 C 22,3 C 54 % 1017,7 hPa 0,0 l/m 0 min 0 min 2,1 UV-I 281 W/m 0,0 km/h (0 Bft)
05.06.2013 14:02 21,6 C 22,3 C 55 % 1017,7 hPa 0,0 l/m 0 min 0 min 2,2 UV-I 295 W/m 2,6 km/h (1 Bft)
05.06.2013 14:04 21,5 C 22,3 C 55 % 1017,7 hPa 0,0 l/m 0 min 0 min 2,3 UV-I 315 W/m 0,0 km/h (0 Bft)
05.06.2013 14:06 21,7 C 22,9 C 58 % 1017,6 hPa 0,0 l/m 0 min 0 min 2,7 UV-I 371 W/m 0,0 km/h (0 Bft)
05.06.2013 14:08 21,8 C 22,9 C 55 % 1017,6 hPa 0,0 l/m 2 min 0 min 4,1 UV-I 970 W/m 0,0 km/h (0 Bft)
05.06.2013 14:10 22,2 C 24,0 C 56 % 1017,6 hPa 0,0 l/m 2 min 0 min 4,6 UV-I 970 W/m 7,7 km/h (2 Bft)
05.06.2013 14:12 22,8 C 24,6 C 54 % 1017,6 hPa 0,0 l/m 2 min 0 min 4,7 UV-I 976 W/m 18,0 km/h (3 Bft)
05.06.2013 14:14 23,3 C 25,1 C 53 % 1017,6 hPa 0,0 l/m 2 min 0 min 4,6 UV-I 960 W/m 18,0 km/h (3 Bft)
05.06.2013 14:16 23,3 C 24,6 C 51 % 1017,6 hPa 0,0 l/m 2 min 0 min 4,3 UV-I 940 W/m 15,4 km/h (3 Bft)
05.06.2013 14:18 23,3 C 24,6 C 52 % 1017,5 hPa 0,0 l/m 2 min 0 min 4,2 UV-I 949 W/m 7,7 km/h (2 Bft)
05.06.2013 14:20 23,6 C 25,1 C 53 % 1017,4 hPa 0,0 l/m 2 min 0 min 4,3 UV-I 960 W/m 12,9 km/h (3 Bft)
05.06.2013 14:22 23,8 C 25,7 C 52 % 1017,5 hPa 0,0 l/m 2 min 0 min 4,2 UV-I 965 W/m 7,7 km/h (2 Bft)
05.06.2013 14:24 23,7 C 25,1 C 50 % 1017,5 hPa 0,0 l/m 2 min 0 min 2,3 UV-I 965 W/m 15,4 km/h (3 Bft)
05.06.2013 14:26 23,2 C 24,0 C 51 % 1017,5 hPa 0,0 l/m 0 min 0 min 2,3 UV-I 278 W/m 10,3 km/h (2 Bft)
05.06.2013 14:28 22,9 C 23,4 C 51 % 1017,5 hPa 0,0 l/m 0 min 0 min 2,5 UV-I 302 W/m 7,7 km/h (2 Bft)
05.06.2013 14:30 22,8 C 24,0 C 54 % 1017,5 hPa 0,0 l/m 2 min 0 min 4,1 UV-I 935 W/m 2,6 km/h (1 Bft)
05.06.2013 14:32 22,8 C 24,0 C 52 % 1017,5 hPa 0,0 l/m 2 min 0 min 4,3 UV-I 911 W/m 10,3 km/h (2 Bft)
05.06.2013 14:34 23,3 C 25,1 C 56 % 1017,5 hPa 0,0 l/m 2 min 0 min 4,3 UV-I 888 W/m 2,6 km/h (1 Bft)
05.06.2013 14:36 23,4 C 24,6 C 52 % 1017,5 hPa 0,0 l/m 2 min 0 min 4,1 UV-I 807 W/m 7,7 km/h (2 Bft)
05.06.2013 14:38 23,6 C 25,1 C 52 % 1017,5 hPa 0,0 l/m 2 min 0 min 4,3 UV-I 874 W/m 2,6 km/h (1 Bft)
05.06.2013 14:40 23,4 C 24,6 C 51 % 1017,5 hPa 0,0 l/m 2 min 0 min 4,3 UV-I 875 W/m 12,9 km/h (3 Bft)
05.06.2013 14:42 23,1 C 24,6 C 51 % 1017,5 hPa 0,0 l/m 2 min 0 min 4,1 UV-I 817 W/m 10,3 km/h (2 Bft)
05.06.2013 14:44 23,0 C 24,0 C 53 % 1017,4 hPa 0,0 l/m 2 min 0 min 4,2 UV-I 854 W/m 10,3 km/h (2 Bft)
05.06.2013 14:46 23,3 C 24,6 C 52 % 1017,4 hPa 0,0 l/m 2 min 0 min 4,3 UV-I 860 W/m 12,9 km/h (3 Bft)
05.06.2013 14:48 23,2 C 24,0 C 51 % 1017,4 hPa 0,0 l/m 2 min 0 min 4,3 UV-I 867 W/m 12,9 km/h (3 Bft)
05.06.2013 14:50 23,1 C 24,0 C 50 % 1017,4 hPa 0,0 l/m 2 min 0 min 4,3 UV-I 858 W/m 2,6 km/h (1 Bft)
05.06.2013 14:52 23,2 C 24,0 C 51 % 1017,4 hPa 0,0 l/m 2 min 0 min 4,0 UV-I 791 W/m 7,7 km/h (2 Bft)
05.06.2013 14:54 23,1 C 24,0 C 51 % 1017,4 hPa 0,0 l/m 2 min 0 min 3,9 UV-I 830 W/m 7,7 km/h (2 Bft)
05.06.2013 14:56 22,9 C 24,0 C 50 % 1017,4 hPa 0,0 l/m 2 min 0 min 4,0 UV-I 835 W/m 12,9 km/h (3 Bft)
05.06.2013 14:58 22,8 C 24,0 C 52 % 1017,3 hPa 0,0 l/m 2 min 0 min 2,6 UV-I 835 W/m 7,7 km/h (2 Bft)
05.06.2013 15:00 22,9 C 24,0 C 52 % 1017,4 hPa 0,0 l/m 2 min 0 min 3,9 UV-I 835 W/m 2,6 km/h (1 Bft)
05.06.2013 15:02 23,2 C 24,0 C 55 % 1017,3 hPa 0,0 l/m 2 min 0 min 4,1 UV-I 833 W/m 2,6 km/h (1 Bft)
05.06.2013 15:04 23,4 C 24,6 C 52 % 1017,2 hPa 0,0 l/m 2 min 0 min 4,1 UV-I 846 W/m 0,0 km/h (0 Bft)
05.06.2013 15:06 23,7 C 24,0 C 52 % 1017,2 hPa 0,0 l/m 2 min 0 min 2,7 UV-I 846 W/m 15,4 km/h (3 Bft)
05.06.2013 15:08 23,8 C 24,6 C 55 % 1017,3 hPa 0,0 l/m 2 min 0 min 3,9 UV-I 795 W/m 7,7 km/h (2 Bft)
05.06.2013 15:10 24,1 C 24,6 C 52 % 1017,2 hPa 0,0 l/m 2 min 0 min 4,0 UV-I 812 W/m 7,7 km/h (2 Bft)
05.06.2013 15:12 24,2 C 24,6 C 51 % 1017,3 hPa 0,0 l/m 2 min 0 min 4,0 UV-I 812 W/m 10,3 km/h (2 Bft)
05.06.2013 15:14 24,3 C 24,6 C 50 % 1017,3 hPa 0,0 l/m 2 min 0 min 3,9 UV-I 800 W/m 7,7 km/h (2 Bft)
05.06.2013 15:16 24,3 C 24,6 C 50 % 1017,3 hPa 0,0 l/m 2 min 0 min 3,9 UV-I 802 W/m 7,7 km/h (2 Bft)
05.06.2013 15:18 24,3 C 24,6 C 50 % 1017,2 hPa 0,0 l/m 2 min 0 min 3,9 UV-I 809 W/m 10,3 km/h (2 Bft)
05.06.2013 15:20 24,5 C 25,1 C 51 % 1017,2 hPa 0,0 l/m 2 min 0 min 3,9 UV-I 824 W/m 2,6 km/h (1 Bft)
05.06.2013 15:22 24,4 C 25,1 C 51 % 1017,2 hPa 0,0 l/m 2 min 0 min 3,8 UV-I 828 W/m 10,3 km/h (2 Bft)
05.06.2013 15:24 24,4 C 25,1 C 50 % 1017,2 hPa 0,0 l/m 2 min 0 min 3,3 UV-I 835 W/m 7,7 km/h (2 Bft)
05.06.2013 15:26 24,3 C 25,1 C 50 % 1017,1 hPa 0,0 l/m 2 min 0 min 3,7 UV-I 835 W/m 2,6 km/h (1 Bft)
05.06.2013 15:28 24,3 C 25,1 C 50 % 1017,2 hPa 0,0 l/m 2 min 0 min 2,4 UV-I 835 W/m 0,0 km/h (0 Bft)
05.06.2013 15:30 23,9 C 24,0 C 50 % 1017,1 hPa 0,0 l/m 0 min 0 min 2,7 UV-I 236 W/m 0,0 km/h (0 Bft)
05.06.2013 15:32 23,8 C 24,6 C 52 % 1017,2 hPa 0,0 l/m 2 min 0 min 3,7 UV-I 789 W/m 12,9 km/h (3 Bft)
05.06.2013 15:34 24,1 C 25,1 C 53 % 1017,1 hPa 0,0 l/m 2 min 0 min 3,6 UV-I 777 W/m 7,7 km/h (2 Bft)
05.06.2013 15:36 24,3 C 25,1 C 50 % 1017,1 hPa 0,0 l/m 2 min 0 min 3,6 UV-I 788 W/m 5,1 km/h (1 Bft)
05.06.2013 15:38 24,3 C 24,6 C 50 % 1017,1 hPa 0,0 l/m 0 min 0 min 2,2 UV-I 257 W/m 12,9 km/h (3 Bft)
05.06.2013 15:40 24,1 C 24,0 C 50 % 1017,1 hPa 0,0 l/m 0 min 0 min 2,1 UV-I 211 W/m 15,4 km/h (3 Bft)
05.06.2013 15:42 23,9 C 24,0 C 50 % 1017,1 hPa 0,0 l/m 0 min 0 min 2,0 UV-I 211 W/m 2,6 km/h (1 Bft)
05.06.2013 15:44 23,6 C 23,4 C 49 % 1017,1 hPa 0,0 l/m 0 min 0 min 1,9 UV-I 214 W/m 2,6 km/h (1 Bft)
05.06.2013 15:46 23,3 C 22,9 C 50 % 1017,1 hPa 0,0 l/m 0 min 0 min 1,8 UV-I 214 W/m 0,0 km/h (0 Bft)
05.06.2013 15:48 23,1 C 22,9 C 50 % 1017,1 hPa 0,0 l/m 2 min 0 min 3,2 UV-I 853 W/m 2,6 km/h (1 Bft)
05.06.2013 15:50 22,9 C 23,4 C 49 % 1017,1 hPa 0,0 l/m 2 min 0 min 2,6 UV-I 842 W/m 0,0 km/h (0 Bft)
05.06.2013 15:52 23,0 C 24,0 C 54 % 1017,1 hPa 0,0 l/m 2 min 0 min 3,1 UV-I 526 W/m 0,0 km/h (0 Bft)
05.06.2013 15:54 23,3 C 24,0 C 53 % 1017,1 hPa 0,0 l/m 2 min 0 min 1,9 UV-I 635 W/m 0,0 km/h (0 Bft)
05.06.2013 15:56 23,6 C 24,0 C 52 % 1017,1 hPa 0,0 l/m 0 min 0 min 3,1 UV-I 253 W/m 5,1 km/h (1 Bft)
05.06.2013 15:58 24,0 C 24,6 C 53 % 1017,1 hPa 0,0 l/m 2 min 0 min 3,0 UV-I 838 W/m 2,6 km/h (1 Bft)
05.06.2013 16:00 24,1 C 24,6 C 50 % 1017,1 hPa 0,0 l/m 2 min 0 min 2,6 UV-I 838 W/m 2,6 km/h (1 Bft)
05.06.2013 16:02 23,9 C 24,6 C 50 % 1017,1 hPa 0,0 l/m 0 min 0 min 2,5 UV-I 278 W/m 0,0 km/h (0 Bft)
05.06.2013 16:04 23,8 C 24,0 C 52 % 1017,1 hPa 0,0 l/m 2 min 0 min 1,9 UV-I 538 W/m 2,6 km/h (1 Bft)
05.06.2013 16:06 23,7 C 24,0 C 51 % 1017,1 hPa 0,0 l/m 0 min 0 min 2,3 UV-I 308 W/m 2,6 km/h (1 Bft)
05.06.2013 16:08 23,4 C 24,0 C 51 % 1017,0 hPa 0,0 l/m 2 min 0 min 3,0 UV-I 802 W/m 12,9 km/h (3 Bft)
05.06.2013 16:10 23,3 C 24,0 C 51 % 1017,1 hPa 0,0 l/m 2 min 0 min 2,8 UV-I 793 W/m 12,9 km/h (3 Bft)
05.06.2013 16:12 23,4 C 24,6 C 52 % 1017,0 hPa 0,0 l/m 2 min 0 min 2,5 UV-I 501 W/m 12,9 km/h (3 Bft)
05.06.2013 16:14 23,6 C 25,1 C 52 % 1017,0 hPa 0,0 l/m 2 min 0 min 2,9 UV-I 816 W/m 7,7 km/h (2 Bft)
05.06.2013 16:16 23,7 C 25,1 C 52 % 1017,1 hPa 0,0 l/m 2 min 0 min 2,9 UV-I 812 W/m 18,0 km/h (3 Bft)
05.06.2013 16:18 23,7 C 25,1 C 51 % 1017,1 hPa 0,0 l/m 2 min 0 min 2,7 UV-I 789 W/m 10,3 km/h (2 Bft)
05.06.2013 16:20 23,6 C 25,1 C 51 % 1017,1 hPa 0,0 l/m 0 min 0 min 1,7 UV-I 265 W/m 2,6 km/h (1 Bft)
05.06.2013 16:22 23,5 C 24,6 C 52 % 1017,1 hPa 0,0 l/m 0 min 0 min 1,8 UV-I 287 W/m 5,1 km/h (1 Bft)
05.06.2013 16:24 23,3 C 24,6 C 50 % 1017,1 hPa 0,0 l/m 0 min 0 min 2,6 UV-I 285 W/m 15,4 km/h (3 Bft)
05.06.2013 16:26 23,3 C 25,7 C 52 % 1017,1 hPa 0,0 l/m 2 min 0 min 2,6 UV-I 717 W/m 12,9 km/h (3 Bft)
05.06.2013 16:28 23,4 C 26,2 C 51 % 1017,1 hPa 0,0 l/m 2 min 0 min 2,5 UV-I 693 W/m 10,3 km/h (2 Bft)
05.06.2013 16:30 23,7 C 27,3 C 53 % 1017,1 hPa 0,0 l/m 2 min 0 min 2,5 UV-I 686 W/m 0,0 km/h (0 Bft)
05.06.2013 16:32 24,1 C 27,9 C 50 % 1017,1 hPa 0,0 l/m 2 min 0 min 2,5 UV-I 689 W/m 5,1 km/h (1 Bft)
05.06.2013 16:34 23,9 C 27,9 C 50 % 1017,1 hPa 0,0 l/m 2 min 0 min 2,4 UV-I 687 W/m 7,7 km/h (2 Bft)
05.06.2013 16:36 23,8 C 27,9 C 50 % 1017,1 hPa 0,0 l/m 2 min 0 min 2,1 UV-I 698 W/m 0,0 km/h (0 Bft)
05.06.2013 16:38 23,7 C 27,3 C 51 % 1017,1 hPa 0,0 l/m 2 min 0 min 2,5 UV-I 693 W/m 0,0 km/h (0 Bft)
05.06.2013 16:40 23,7 C 27,3 C 50 % 1017,0 hPa 0,0 l/m 2 min 0 min 2,5 UV-I 687 W/m 18,0 km/h (3 Bft)
05.06.2013 16:42 23,6 C 26,8 C 50 % 1017,1 hPa 0,0 l/m 2 min 0 min 2,5 UV-I 673 W/m 15,4 km/h (3 Bft)
05.06.2013 16:44 23,5 C 27,3 C 52 % 1017,0 hPa 0,0 l/m 2 min 0 min 2,5 UV-I 680 W/m 2,6 km/h (1 Bft)
05.06.2013 16:46 23,9 C 28,4 C 52 % 1017,0 hPa 0,0 l/m 2 min 0 min 2,5 UV-I 687 W/m 7,7 km/h (2 Bft)
05.06.2013 16:48 23,9 C 27,9 C 50 % 1016,9 hPa 0,0 l/m 2 min 0 min 2,4 UV-I 663 W/m 10,3 km/h (2 Bft)
05.06.2013 16:50 23,7 C 27,9 C 49 % 1017,0 hPa 0,0 l/m 2 min 0 min 2,4 UV-I 656 W/m 10,3 km/h (2 Bft)
05.06.2013 16:52 23,6 C 27,3 C 49 % 1017,0 hPa 0,0 l/m 2 min 0 min 2,3 UV-I 659 W/m 12,9 km/h (3 Bft)
05.06.2013 16:54 23,7 C 28,4 C 52 % 1016,9 hPa 0,0 l/m 2 min 0 min 2,3 UV-I 668 W/m 7,7 km/h (2 Bft)
05.06.2013 16:56 23,8 C 27,3 C 50 % 1016,9 hPa 0,0 l/m 2 min 0 min 2,2 UV-I 673 W/m 10,3 km/h (2 Bft)
05.06.2013 16:58 23,9 C 26,8 C 51 % 1016,9 hPa 0,0 l/m 2 min 0 min 2,3 UV-I 680 W/m 2,6 km/h (1 Bft)
05.06.2013 17:00 23,9 C 26,2 C 49 % 1017,0 hPa 0,0 l/m 2 min 0 min 2,2 UV-I 659 W/m 10,3 km/h (2 Bft)
05.06.2013 17:02 23,7 C 25,1 C 50 % 1016,8 hPa 0,0 l/m 2 min 0 min 2,2 UV-I 640 W/m 10,3 km/h (2 Bft)
05.06.2013 17:04 23,6 C 24,6 C 51 % 1016,8 hPa 0,0 l/m 2 min 0 min 2,1 UV-I 626 W/m 2,6 km/h (1 Bft)
05.06.2013 17:06 23,9 C 24,6 C 51 % 1016,7 hPa 0,0 l/m 2 min 0 min 2,0 UV-I 619 W/m 0,0 km/h (0 Bft)
05.06.2013 17:08 24,1 C 24,6 C 49 % 1016,8 hPa 0,0 l/m 2 min 0 min 2,0 UV-I 601 W/m 0,0 km/h (0 Bft)
05.06.2013 17:10 24,1 C 24,0 C 50 % 1016,8 hPa 0,0 l/m 2 min 0 min 1,9 UV-I 580 W/m 18,0 km/h (3 Bft)
05.06.2013 17:12 23,9 C 24,0 C 49 % 1016,8 hPa 0,0 l/m 2 min 0 min 1,9 UV-I 533 W/m 12,9 km/h (3 Bft)
05.06.2013 17:14 23,9 C 24,0 C 50 % 1016,8 hPa 0,0 l/m 2 min 0 min 1,8 UV-I 587 W/m 15,4 km/h (3 Bft)
05.06.2013 17:16 24,1 C 24,0 C 51 % 1016,8 hPa 0,0 l/m 2 min 0 min 1,8 UV-I 615 W/m 7,7 km/h (2 Bft)
05.06.2013 17:18 24,0 C 24,0 C 49 % 1016,8 hPa 0,0 l/m 2 min 0 min 1,8 UV-I 624 W/m 10,3 km/h (2 Bft)
05.06.2013 17:20 23,9 C 24,0 C 50 % 1016,8 hPa 0,0 l/m 2 min 0 min 1,8 UV-I 622 W/m 12,9 km/h (3 Bft)
05.06.2013 17:22 23,9 C 24,0 C 50 % 1016,7 hPa 0,0 l/m 2 min 0 min 1,7 UV-I 612 W/m 10,3 km/h (2 Bft)
05.06.2013 17:24 23,8 C 24,0 C 50 % 1016,8 hPa 0,0 l/m 2 min 0 min 1,6 UV-I 596 W/m 2,6 km/h (1 Bft)
05.06.2013 17:26 23,9 C 24,0 C 50 % 1016,8 hPa 0,0 l/m 2 min 0 min 1,6 UV-I 580 W/m 2,6 km/h (1 Bft)
05.06.2013 17:28 24,1 C 24,0 C 50 % 1016,8 hPa 0,0 l/m 2 min 0 min 1,5 UV-I 517 W/m 0,0 km/h (0 Bft)
05.06.2013 17:30 24,1 C 24,0 C 49 % 1016,8 hPa 0,0 l/m 2 min 0 min 1,5 UV-I 531 W/m 18,0 km/h (3 Bft)
05.06.2013 17:32 23,9 C 23,4 C 50 % 1016,8 hPa 0,0 l/m 2 min 0 min 1,5 UV-I 515 W/m 10,3 km/h (2 Bft)
05.06.2013 17:34 23,8 C 23,4 C 50 % 1016,8 hPa 0,0 l/m 2 min 0 min 1,5 UV-I 519 W/m 2,6 km/h (1 Bft)
05.06.2013 17:36 23,8 C 22,9 C 49 % 1016,8 hPa 0,0 l/m 2 min 0 min 1,5 UV-I 510 W/m 12,9 km/h (3 Bft)
05.06.2013 17:38 23,8 C 22,9 C 50 % 1016,8 hPa 0,0 l/m 2 min 0 min 1,5 UV-I 510 W/m 10,3 km/h (2 Bft)
05.06.2013 17:40 23,6 C 22,9 C 50 % 1016,8 hPa 0,0 l/m 2 min 0 min 1,4 UV-I 501 W/m 10,3 km/h (2 Bft)
05.06.2013 17:42 23,6 C 22,9 C 50 % 1016,7 hPa 0,0 l/m 0 min 0 min 1,0 UV-I 114 W/m 12,9 km/h (3 Bft)
05.06.2013 17:44 23,5 C 22,3 C 51 % 1016,8 hPa 0,0 l/m 0 min 0 min 0,9 UV-I 111 W/m 18,0 km/h (3 Bft)
05.06.2013 17:46 23,4 C 22,3 C 52 % 1016,8 hPa 0,0 l/m 0 min 0 min 0,9 UV-I 113 W/m 2,6 km/h (1 Bft)
05.06.2013 17:48 23,3 C 22,3 C 51 % 1016,7 hPa 0,0 l/m 0 min 0 min 0,8 UV-I 118 W/m 0,0 km/h (0 Bft)
05.06.2013 17:50 23,2 C 22,3 C 54 % 1016,7 hPa 0,0 l/m 0 min 0 min 1,2 UV-I 213 W/m 0,0 km/h (0 Bft)
05.06.2013 17:52 23,3 C 22,3 C 52 % 1016,8 hPa 0,0 l/m 2 min 0 min 1,2 UV-I 487 W/m 10,3 km/h (2 Bft)
05.06.2013 17:54 23,3 C 22,3 C 53 % 1016,7 hPa 0,0 l/m 2 min 0 min 1,2 UV-I 483 W/m 7,7 km/h (2 Bft)
05.06.2013 17:56 23,5 C 22,3 C 53 % 1016,7 hPa 0,0 l/m 2 min 0 min 1,1 UV-I 483 W/m 2,6 km/h (1 Bft)
05.06.2013 17:58 23,5 C 22,3 C 50 % 1016,7 hPa 0,0 l/m 2 min 0 min 1,1 UV-I 473 W/m 0,0 km/h (0 Bft)
05.06.2013 18:00 23,4 C 22,3 C 50 % 1016,7 hPa 0,0 l/m 2 min 0 min 1,1 UV-I 417 W/m 2,6 km/h (1 Bft)
05.06.2013 18:02 23,5 C 22,3 C 50 % 1016,7 hPa 0,0 l/m 2 min 0 min 0,9 UV-I 448 W/m 2,6 km/h (1 Bft)
05.06.2013 18:04 23,6 C 22,3 C 51 % 1016,7 hPa 0,0 l/m 2 min 0 min 0,9 UV-I 388 W/m 0,0 km/h (0 Bft)
05.06.2013 18:06 23,7 C 22,3 C 50 % 1016,7 hPa 0,0 l/m 0 min 0 min 0,9 UV-I 185 W/m 15,4 km/h (3 Bft)
05.06.2013 18:08 23,6 C 22,3 C 50 % 1016,7 hPa 0,0 l/m 0 min 0 min 0,8 UV-I 214 W/m 18,0 km/h (3 Bft)
05.06.2013 18:10 23,6 C 22,3 C 51 % 1016,6 hPa 0,0 l/m 0 min 0 min 0,8 UV-I 197 W/m 7,7 km/h (2 Bft)
05.06.2013 18:12 23,6 C 22,3 C 52 % 1016,7 hPa 0,0 l/m 0 min 0 min 0,8 UV-I 230 W/m 2,6 km/h (1 Bft)
05.06.2013 18:14 23,7 C 22,3 C 50 % 1016,7 hPa 0,0 l/m 0 min 0 min 0,9 UV-I 200 W/m 10,3 km/h (2 Bft)
05.06.2013 18:16 23,6 C 22,3 C 50 % 1016,7 hPa 0,0 l/m 2 min 0 min 0,9 UV-I 350 W/m 18,0 km/h (3 Bft)
05.06.2013 18:18 23,6 C 22,3 C 50 % 1016,7 hPa 0,0 l/m 2 min 0 min 0,9 UV-I 390 W/m 10,3 km/h (2 Bft)
05.06.2013 18:20 23,5 C 22,3 C 51 % 1016,6 hPa 0,0 l/m 2 min 0 min 0,9 UV-I 459 W/m 2,6 km/h (1 Bft)
05.06.2013 18:22 23,6 C 22,3 C 50 % 1016,7 hPa 0,0 l/m 2 min 0 min 0,9 UV-I 459 W/m 7,7 km/h (2 Bft)
05.06.2013 18:24 23,4 C 22,3 C 51 % 1016,7 hPa 0,0 l/m 2 min 0 min 0,9 UV-I 454 W/m 7,7 km/h (2 Bft)
05.06.2013 18:26 23,4 C 22,9 C 51 % 1016,6 hPa 0,0 l/m 2 min 0 min 0,8 UV-I 443 W/m 0,0 km/h (0 Bft)
05.06.2013 18:28 23,5 C 22,9 C 53 % 1016,6 hPa 0,0 l/m 2 min 0 min 0,7 UV-I 431 W/m 0,0 km/h (0 Bft)
05.06.2013 18:30 23,7 C 22,9 C 50 % 1016,6 hPa 0,0 l/m 2 min 0 min 0,6 UV-I 367 W/m 0,0 km/h (0 Bft)
05.06.2013 18:32 23,7 C 22,3 C 51 % 1016,6 hPa 0,0 l/m 0 min 0 min 0,6 UV-I 146 W/m 15,4 km/h (3 Bft)
05.06.2013 18:34 23,7 C 22,3 C 51 % 1016,5 hPa 0,0 l/m 0 min 0 min 0,7 UV-I 149 W/m 7,7 km/h (2 Bft)
05.06.2013 18:36 23,8 C 22,3 C 50 % 1016,5 hPa 0,0 l/m 0 min 0 min 0,6 UV-I 221 W/m 10,3 km/h (2 Bft)
05.06.2013 18:38 23,9 C 22,3 C 51 % 1016,6 hPa 0,0 l/m 2 min 0 min 0,6 UV-I 287 W/m 0,0 km/h (0 Bft)
05.06.2013 18:40 23,9 C 22,3 C 52 % 1016,6 hPa 0,0 l/m 0 min 0 min 0,5 UV-I 232 W/m 2,6 km/h (1 Bft)
05.06.2013 18:42 23,8 C 22,3 C 51 % 1016,6 hPa 0,0 l/m 0 min 0 min 0,5 UV-I 114 W/m 2,6 km/h (1 Bft)
05.06.2013 18:44 23,8 C 22,3 C 50 % 1016,6 hPa 0,0 l/m 0 min 0 min 0,0 UV-I 121 W/m 0,0 km/h (0 Bft)
05.06.2013 18:46 23,7 C 22,3 C 51 % 1016,5 hPa 0,0 l/m 0 min 0 min 0,0 UV-I 98 W/m 12,9 km/h (3 Bft)
05.06.2013 18:48 23,6 C 21,8 C 50 % 1016,6 hPa 0,0 l/m 0 min 0 min 0,0 UV-I 104 W/m 12,9 km/h (3 Bft)
05.06.2013 18:50 23,4 C 21,8 C 50 % 1016,6 hPa 0,0 l/m 0 min 0 min 0,0 UV-I 91 W/m 10,3 km/h (2 Bft)
05.06.2013 18:52 23,3 C 21,8 C 51 % 1016,6 hPa 0,0 l/m 0 min 0 min 0,0 UV-I 91 W/m 12,9 km/h (3 Bft)
05.06.2013 18:54 23,3 C 21,8 C 51 % 1016,6 hPa 0,0 l/m 0 min 0 min 0,0 UV-I 114 W/m 5,1 km/h (1 Bft)
05.06.2013 18:56 23,3 C 21,8 C 52 % 1016,6 hPa 0,0 l/m 0 min 0 min 0,0 UV-I 102 W/m 10,3 km/h (2 Bft)
05.06.2013 18:58 23,3 C 21,8 C 51 % 1016,6 hPa 0,0 l/m 0 min 0 min 0,0 UV-I 83 W/m 12,9 km/h (3 Bft)
05.06.2013 19:00 23,2 C 21,8 C 51 % 1016,5 hPa 0,0 l/m 0 min 0 min 0,0 UV-I 86 W/m 7,7 km/h (2 Bft)
05.06.2013 19:02 23,2 C 21,8 C 51 % 1016,6 hPa 0,0 l/m 0 min 0 min 0,0 UV-I 97 W/m 2,6 km/h (1 Bft)
05.06.2013 19:04 23,2 C 21,2 C 52 % 1016,6 hPa 0,0 l/m 0 min 0 min 0,0 UV-I 76 W/m 0,0 km/h (0 Bft)
05.06.2013 19:06 23,2 C 21,2 C 52 % 1016,5 hPa 0,0 l/m 0 min 0 min 0,0 UV-I 81 W/m 2,6 km/h (1 Bft)
05.06.2013 19:08 23,2 C 21,8 C 51 % 1016,6 hPa 0,0 l/m 0 min 0 min 0,0 UV-I 76 W/m 7,7 km/h (2 Bft)
05.06.2013 19:10 23,1 C 21,8 C 51 % 1016,6 hPa 0,0 l/m 0 min 0 min 0,0 UV-I 74 W/m 2,6 km/h (1 Bft)
05.06.2013 19:12 23,1 C 21,2 C 51 % 1016,5 hPa 0,0 l/m 0 min 0 min 0,0 UV-I 70 W/m 12,9 km/h (3 Bft)
05.06.2013 19:14 23,1 C 21,8 C 51 % 1016,5 hPa 0,0 l/m 0 min 0 min 0,0 UV-I 69 W/m 15,4 km/h (3 Bft)
05.06.2013 19:16 23,1 C 21,8 C 52 % 1016,5 hPa 0,0 l/m 0 min 0 min 0,0 UV-I 67 W/m 10,3 km/h (2 Bft)
05.06.2013 19:18 23,0 C 21,2 C 52 % 1016,5 hPa 0,0 l/m 0 min 0 min 0,0 UV-I 67 W/m 12,9 km/h (3 Bft)
05.06.2013 19:20 23,0 C 21,8 C 52 % 1016,5 hPa 0,0 l/m 0 min 0 min 0,0 UV-I 65 W/m 7,7 km/h (2 Bft)
05.06.2013 19:22 23,0 C 21,2 C 52 % 1016,5 hPa 0,0 l/m 0 min 0 min 0,0 UV-I 65 W/m 15,4 km/h (3 Bft)
05.06.2013 19:24 23,0 C 21,2 C 52 % 1016,5 hPa 0,0 l/m 0 min 0 min 0,0 UV-I 65 W/m 12,9 km/h (3 Bft)
05.06.2013 19:26 22,9 C 21,2 C 52 % 1016,5 hPa 0,0 l/m 0 min 0 min 0,0 UV-I 63 W/m 7,7 km/h (2 Bft)
05.06.2013 19:28 22,9 C 21,2 C 53 % 1016,5 hPa 0,0 l/m 0 min 0 min 0,0 UV-I 62 W/m 2,6 km/h (1 Bft)
05.06.2013 19:30 22,9 C 21,2 C 53 % 1016,5 hPa 0,0 l/m 0 min 0 min 0,0 UV-I 60 W/m 7,7 km/h (2 Bft)
05.06.2013 19:32 22,9 C 21,2 C 53 % 1016,5 hPa 0,0 l/m 0 min 0 min 0,0 UV-I 58 W/m 2,6 km/h (1 Bft)
05.06.2013 19:34 22,9 C 21,2 C 52 % 1016,5 hPa 0,0 l/m 0 min 0 min 0,0 UV-I 58 W/m 12,9 km/h (3 Bft)
05.06.2013 19:36 22,9 C 21,2 C 52 % 1016,5 hPa 0,0 l/m 0 min 0 min 0,0 UV-I 58 W/m 10,3 km/h (2 Bft)
05.06.2013 19:38 22,9 C 21,2 C 51 % 1016,5 hPa 0,0 l/m 0 min 0 min 0,0 UV-I 56 W/m 12,9 km/h (3 Bft)
05.06.2013 19:40 22,9 C 21,2 C 52 % 1016,5 hPa 0,0 l/m 0 min 0 min 0,0 UV-I 56 W/m 2,6 km/h (1 Bft)
05.06.2013 19:42 22,8 C 21,2 C 52 % 1016,5 hPa 0,0 l/m 0 min 0 min 0,0 UV-I 54 W/m 12,9 km/h (3 Bft)
05.06.2013 19:44 22,8 C 21,2 C 52 % 1016,5 hPa 0,0 l/m 0 min 0 min 0,0 UV-I 54 W/m 2,6 km/h (1 Bft)
05.06.2013 19:46 22,8 C 21,2 C 53 % 1016,5 hPa 0,0 l/m 0 min 0 min 0,0 UV-I 53 W/m 2,6 km/h (1 Bft)
05.06.2013 19:48 22,8 C 21,2 C 52 % 1016,5 hPa 0,0 l/m 0 min 0 min 0,0 UV-I 51 W/m 7,7 km/h (2 Bft)
05.06.2013 19:50 22,8 C 21,2 C 53 % 1016,5 hPa 0,0 l/m 0 min 0 min 0,0 UV-I 51 W/m 2,6 km/h (1 Bft)
05.06.2013 19:52 22,7 C 21,2 C 53 % 1016,5 hPa 0,0 l/m 0 min 0 min 0,0 UV-I 51 W/m 2,6 km/h (1 Bft)
05.06.2013 19:54 22,7 C 21,2 C 54 % 1016,5 hPa 0,0 l/m 0 min 0 min 0,0 UV-I 51 W/m 0,0 km/h (0 Bft)
05.06.2013 19:56 22,7 C 20,7 C 55 % 1016,5 hPa 0,0 l/m 0 min 0 min 0,0 UV-I 51 W/m 2,6 km/h (1 Bft)
05.06.2013 19:58 22,7 C 20,7 C 54 % 1016,5 hPa 0,0 l/m 0 min 0 min 0,0 UV-I 49 W/m 2,6 km/h (1 Bft)
05.06.2013 20:00 22,7 C 21,2 C 54 % 1016,5 hPa 0,0 l/m 0 min 0 min 0,0 UV-I 49 W/m 7,7 km/h (2 Bft)
05.06.2013 20:02 22,7 C 21,2 C 54 % 1016,5 hPa 0,0 l/m 0 min 0 min 0,0 UV-I 49 W/m 10,3 km/h (2 Bft)
05.06.2013 20:04 22,7 C 21,2 C 54 % 1016,5 hPa 0,0 l/m 0 min 0 min 0,0 UV-I 47 W/m 10,3 km/h (2 Bft)
05.06.2013 20:06 22,6 C 21,2 C 54 % 1016,5 hPa 0,0 l/m 0 min 0 min 0,0 UV-I 47 W/m 10,3 km/h (2 Bft)
05.06.2013 20:08 22,6 C 21,2 C 54 % 1016,5 hPa 0,0 l/m 0 min 0 min 0,0 UV-I 47 W/m 12,9 km/h (3 Bft)
05.06.2013 20:10 22,6 C 21,2 C 54 % 1016,4 hPa 0,0 l/m 0 min 0 min 0,0 UV-I 46 W/m 7,7 km/h (2 Bft)
05.06.2013 20:12 22,5 C 21,2 C 54 % 1016,4 hPa 0,0 l/m 0 min 0 min 0,0 UV-I 46 W/m 7,7 km/h (2 Bft)
05.06.2013 20:14 22,4 C 20,7 C 54 % 1016,4 hPa 0,0 l/m 0 min 0 min 0,0 UV-I 44 W/m 7,7 km/h (2 Bft)
05.06.2013 20:16 22,4 C 20,7 C 54 % 1016,4 hPa 0,0 l/m 0 min 0 min 0,0 UV-I 44 W/m 10,3 km/h (2 Bft)
05.06.2013 20:18 22,4 C 20,7 C 54 % 1016,5 hPa 0,0 l/m 0 min 0 min 0,0 UV-I 44 W/m 12,9 km/h (3 Bft)
05.06.2013 20:20 22,4 C 20,7 C 54 % 1016,5 hPa 0,0 l/m 0 min 0 min 0,0 UV-I 44 W/m 2,6 km/h (1 Bft)
05.06.2013 20:22 22,4 C 20,7 C 55 % 1016,5 hPa 0,0 l/m 0 min 0 min 0,0 UV-I 42 W/m 7,7 km/h (2 Bft)
05.06.2013 20:24 22,4 C 20,7 C 55 % 1016,5 hPa 0,0 l/m 0 min 0 min 0,0 UV-I 42 W/m 5,1 km/h (1 Bft)
05.06.2013 20:26 22,4 C 20,7 C 55 % 1016,5 hPa 0,0 l/m 0 min 0 min 0,0 UV-I 40 W/m 2,6 km/h (1 Bft)
05.06.2013 20:28 22,4 C 20,7 C 55 % 1016,4 hPa 0,0 l/m 0 min 0 min 0,0 UV-I 40 W/m 10,3 km/h (2 Bft)
05.06.2013 20:30 22,3 C 20,1 C 56 % 1016,5 hPa 0,0 l/m 0 min 0 min 0,0 UV-I 39 W/m 5,1 km/h (1 Bft)
05.06.2013 20:32 22,3 C 20,1 C 55 % 1016,5 hPa 0,0 l/m 0 min 0 min 0,0 UV-I 39 W/m 7,7 km/h (2 Bft)
05.06.2013 20:34 22,3 C 20,1 C 55 % 1016,5 hPa 0,0 l/m 0 min 0 min 0,0 UV-I 37 W/m 10,3 km/h (2 Bft)
05.06.2013 20:36 22,3 C 20,1 C 56 % 1016,5 hPa 0,0 l/m 0 min 0 min 0,0 UV-I 37 W/m 10,3 km/h (2 Bft)
05.06.2013 20:38 22,2 C 20,1 C 56 % 1016,5 hPa 0,0 l/m 0 min 0 min 0,0 UV-I 35 W/m 10,3 km/h (2 Bft)
05.06.2013 20:40 22,2 C 20,1 C 56 % 1016,5 hPa 0,0 l/m 0 min 0 min 0,0 UV-I 33 W/m 0,0 km/h (0 Bft)
05.06.2013 20:42 22,2 C 20,1 C 56 % 1016,5 hPa 0,0 l/m 0 min 0 min 0,0 UV-I 33 W/m 12,9 km/h (3 Bft)
05.06.2013 20:44 22,1 C 20,1 C 56 % 1016,6 hPa 0,0 l/m 0 min 0 min 0,0 UV-I 30 W/m 0,0 km/h (0 Bft)
05.06.2013 20:46 22,1 C 20,1 C 57 % 1016,6 hPa 0,0 l/m 0 min 0 min 0,0 UV-I 28 W/m 2,6 km/h (1 Bft)
05.06.2013 20:48 22,1 C 20,1 C 57 % 1016,6 hPa 0,0 l/m 0 min 0 min 0,0 UV-I 26 W/m 2,6 km/h (1 Bft)
05.06.2013 20:50 22,0 C 20,1 C 57 % 1016,6 hPa 0,0 l/m 0 min 0 min 0,0 UV-I 25 W/m 7,7 km/h (2 Bft)
05.06.2013 20:52 21,9 C 19,6 C 57 % 1016,6 hPa 0,0 l/m 0 min 0 min 0,0 UV-I 25 W/m 7,7 km/h (2 Bft)
05.06.2013 20:54 21,9 C 19,6 C 57 % 1016,5 hPa 0,0 l/m 0 min 0 min 0,0 UV-I 21 W/m 10,3 km/h (2 Bft)
05.06.2013 20:56 21,9 C 19,6 C 58 % 1016,5 hPa 0,0 l/m 0 min 0 min 0,0 UV-I 21 W/m 7,7 km/h (2 Bft)
05.06.2013 20:58 21,8 C 19,6 C 58 % 1016,6 hPa 0,0 l/m 0 min 0 min 0,0 UV-I 19 W/m 2,6 km/h (1 Bft)
05.06.2013 21:00 21,8 C 19,6 C 58 % 1016,7 hPa 0,0 l/m 0 min 0 min 0,0 UV-I 18 W/m 7,7 km/h (2 Bft)
05.06.2013 21:02 21,7 C 19,6 C 58 % 1016,7 hPa 0,0 l/m 0 min 0 min 0,0 UV-I 18 W/m 7,7 km/h (2 Bft)
05.06.2013 21:04 21,7 C 19,6 C 58 % 1016,6 hPa 0,0 l/m 0 min 0 min 0,0 UV-I 16 W/m 10,3 km/h (2 Bft)
05.06.2013 21:06 21,7 C 19,6 C 58 % 1016,6 hPa 0,0 l/m 0 min 0 min 0,0 UV-I 14 W/m 7,7 km/h (2 Bft)
05.06.2013 21:08 21,6 C 19,0 C 59 % 1016,7 hPa 0,0 l/m 0 min 0 min 0,0 UV-I 14 W/m 2,6 km/h (1 Bft)
05.06.2013 21:10 21,6 C 19,0 C 59 % 1016,6 hPa 0,0 l/m 0 min 0 min 0,0 UV-I 14 W/m 2,6 km/h (1 Bft)
05.06.2013 21:12 21,5 C 19,0 C 59 % 1016,5 hPa 0,0 l/m 0 min 0 min 0,0 UV-I 12 W/m 0,0 km/h (0 Bft)
05.06.2013 21:14 21,4 C 19,0 C 59 % 1016,6 hPa 0,0 l/m 0 min 0 min 0,0 UV-I 12 W/m 0,0 km/h (0 Bft)
05.06.2013 21:16 21,4 C 18,4 C 60 % 1016,6 hPa 0,0 l/m 0 min 0 min 0,0 UV-I 11 W/m 0,0 km/h (0 Bft)
05.06.2013 21:18 21,4 C 17,9 C 60 % 1016,7 hPa 0,0 l/m 0 min 0 min 0,0 UV-I 11 W/m 0,0 km/h (0 Bft)
05.06.2013 21:20 21,3 C 17,9 C 60 % 1016,6 hPa 0,0 l/m 0 min 0 min 0,0 UV-I 11 W/m 0,0 km/h (0 Bft)
05.06.2013 21:22 21,3 C 17,9 C 61 % 1016,6 hPa 0,0 l/m 0 min 0 min 0,0 UV-I 11 W/m 0,0 km/h (0 Bft)
05.06.2013 21:24 21,3 C 17,9 C 61 % 1016,6 hPa 0,0 l/m 0 min 0 min 0,0 UV-I 11 W/m 0,0 km/h (0 Bft)
05.06.2013 21:26 21,2 C 17,3 C 61 % 1016,7 hPa 0,0 l/m 0 min 0 min 0,0 UV-I 11 W/m 0,0 km/h (0 Bft)
05.06.2013 21:28 21,2 C 17,3 C 61 % 1016,6 hPa 0,0 l/m 0 min 0 min 0,0 UV-I 11 W/m 0,0 km/h (0 Bft)
05.06.2013 21:30 21,1 C 17,3 C 61 % 1016,7 hPa 0,0 l/m 0 min 0 min 0,0 UV-I 9 W/m 0,0 km/h (0 Bft)
05.06.2013 21:32 21,1 C 16,8 C 61 % 1016,7 hPa 0,0 l/m 0 min 0 min 0,0 UV-I 9 W/m 0,0 km/h (0 Bft)
05.06.2013 21:34 21,0 C 16,8 C 61 % 1016,7 hPa 0,0 l/m 0 min 0 min 0,0 UV-I 7 W/m 0,0 km/h (0 Bft)
05.06.2013 21:36 20,9 C 16,8 C 61 % 1016,7 hPa 0,0 l/m 0 min 0 min 0,0 UV-I 7 W/m 0,0 km/h (0 Bft)
05.06.2013 21:38 20,8 C 16,8 C 62 % 1016,8 hPa 0,0 l/m 0 min 0 min 0,0 UV-I 7 W/m 0,0 km/h (0 Bft)
05.06.2013 21:40 20,8 C 16,2 C 62 % 1016,8 hPa 0,0 l/m 0 min 0 min 0,0 UV-I 5 W/m 0,0 km/h (0 Bft)
05.06.2013 21:42 20,8 C 16,2 C 63 % 1016,8 hPa 0,0 l/m 0 min 0 min 0,0 UV-I 5 W/m 0,0 km/h (0 Bft)
05.06.2013 21:44 20,7 C 16,2 C 63 % 1016,8 hPa 0,0 l/m 0 min 0 min 0,0 UV-I 5 W/m 0,0 km/h (0 Bft)
05.06.2013 21:46 20,6 C 16,2 C 63 % 1016,7 hPa 0,0 l/m 0 min 0 min 0,0 UV-I 5 W/m 0,0 km/h (0 Bft)
05.06.2013 21:48 20,5 C 15,7 C 64 % 1016,8 hPa 0,0 l/m 0 min 0 min 0,0 UV-I 0 W/m 0,0 km/h (0 Bft)
05.06.2013 21:50 20,4 C 15,7 C 64 % 1016,9 hPa 0,0 l/m 0 min 0 min 0,0 UV-I 0 W/m 0,0 km/h (0 Bft)
05.06.2013 21:52 20,3 C 15,7 C 64 % 1016,9 hPa 0,0 l/m 0 min 0 min 0,0 UV-I 0 W/m 0,0 km/h (0 Bft)
05.06.2013 21:54 20,2 C 15,7 C 65 % 1016,9 hPa 0,0 l/m 0 min 0 min 0,0 UV-I 0 W/m 0,0 km/h (0 Bft)
05.06.2013 21:56 20,1 C 15,7 C 65 % 1016,9 hPa 0,0 l/m 0 min 0 min 0,0 UV-I 0 W/m 0,0 km/h (0 Bft)
05.06.2013 21:58 20,1 C 15,7 C 65 % 1017,0 hPa 0,0 l/m 0 min 0 min 0,0 UV-I 0 W/m 0,0 km/h (0 Bft)
05.06.2013 22:00 19,9 C 15,1 C 65 % 1017,0 hPa 0,0 l/m 0 min 0 min 0,0 UV-I 0 W/m 0,0 km/h (0 Bft)
05.06.2013 22:02 19,8 C 15,1 C 65 % 1017,0 hPa 0,0 l/m 0 min 0 min 0,0 UV-I 0 W/m 0,0 km/h (0 Bft)
05.06.2013 22:04 19,8 C 15,1 C 65 % 1017,0 hPa 0,0 l/m 0 min 0 min 0,0 UV-I 0 W/m 0,0 km/h (0 Bft)
05.06.2013 22:06 19,7 C 15,1 C 66 % 1017,0 hPa 0,0 l/m 0 min 0 min 0,0 UV-I 0 W/m 0,0 km/h (0 Bft)
05.06.2013 22:08 19,6 C 15,1 C 66 % 1017,1 hPa 0,0 l/m 0 min 0 min 0,0 UV-I 0 W/m 0,0 km/h (0 Bft)
05.06.2013 22:10 19,5 C 15,1 C 66 % 1017,0 hPa 0,0 l/m 0 min 0 min 0,0 UV-I 0 W/m 0,0 km/h (0 Bft)
05.06.2013 22:12 19,4 C 15,1 C 66 % 1017,1 hPa 0,0 l/m 0 min 0 min 0,0 UV-I 0 W/m 0,0 km/h (0 Bft)
05.06.2013 22:14 19,3 C 15,1 C 67 % 1017,1 hPa 0,0 l/m 0 min 0 min 0,0 UV-I 0 W/m 0,0 km/h (0 Bft)
05.06.2013 22:16 19,3 C 14,6 C 67 % 1017,1 hPa 0,0 l/m 0 min 0 min 0,0 UV-I 0 W/m 0,0 km/h (0 Bft)
05.06.2013 22:18 19,2 C 14,6 C 67 % 1017,1 hPa 0,0 l/m 0 min 0 min 0,0 UV-I 0 W/m 0,0 km/h (0 Bft)
05.06.2013 22:20 19,1 C 14,6 C 67 % 1017,2 hPa 0,0 l/m 0 min 0 min 0,0 UV-I 0 W/m 0,0 km/h (0 Bft)
05.06.2013 22:22 19,0 C 14,6 C 68 % 1017,1 hPa 0,0 l/m 0 min 0 min 0,0 UV-I 0 W/m 0,0 km/h (0 Bft)
05.06.2013 22:24 18,9 C 14,6 C 68 % 1017,1 hPa 0,0 l/m 0 min 0 min 0,0 UV-I 0 W/m 0,0 km/h (0 Bft)
05.06.2013 22:26 18,8 C 14,6 C 69 % 1017,1 hPa 0,0 l/m 0 min 0 min 0,0 UV-I 0 W/m 0,0 km/h (0 Bft)
05.06.2013 22:28 18,8 C 14,6 C 69 % 1017,2 hPa 0,0 l/m 0 min 0 min 0,0 UV-I 0 W/m 0,0 km/h (0 Bft)
05.06.2013 22:30 18,7 C 14,6 C 69 % 1017,2 hPa 0,0 l/m 0 min 0 min 0,0 UV-I 0 W/m 0,0 km/h (0 Bft)
05.06.2013 22:32 18,6 C 14,6 C 70 % 1017,2 hPa 0,0 l/m 0 min 0 min 0,0 UV-I 0 W/m 0,0 km/h (0 Bft)
05.06.2013 22:34 18,5 C 14,0 C 70 % 1017,3 hPa 0,0 l/m 0 min 0 min 0,0 UV-I 0 W/m 0,0 km/h (0 Bft)
05.06.2013 22:36 18,4 C 14,0 C 70 % 1017,3 hPa 0,0 l/m 0 min 0 min 0,0 UV-I 0 W/m 0,0 km/h (0 Bft)
05.06.2013 22:38 18,4 C 14,0 C 70 % 1017,3 hPa 0,0 l/m 0 min 0 min 0,0 UV-I 0 W/m 0,0 km/h (0 Bft)
05.06.2013 22:40 18,3 C 14,0 C 71 % 1017,3 hPa 0,0 l/m 0 min 0 min 0,0 UV-I 0 W/m 0,0 km/h (0 Bft)
05.06.2013 22:42 18,2 C 14,0 C 71 % 1017,3 hPa 0,0 l/m 0 min 0 min 0,0 UV-I 0 W/m 0,0 km/h (0 Bft)
05.06.2013 22:44 18,2 C 14,0 C 71 % 1017,3 hPa 0,0 l/m 0 min 0 min 0,0 UV-I 0 W/m 0,0 km/h (0 Bft)
05.06.2013 22:46 18,1 C 14,0 C 72 % 1017,3 hPa 0,0 l/m 0 min 0 min 0,0 UV-I 0 W/m 0,0 km/h (0 Bft)
05.06.2013 22:48 17,9 C 14,0 C 72 % 1017,3 hPa 0,0 l/m 0 min 0 min 0,0 UV-I 0 W/m 0,0 km/h (0 Bft)
05.06.2013 22:50 17,9 C 14,0 C 72 % 1017,3 hPa 0,0 l/m 0 min 0 min 0,0 UV-I 0 W/m 0,0 km/h (0 Bft)
05.06.2013 22:52 17,8 C 14,0 C 72 % 1017,4 hPa 0,0 l/m 0 min 0 min 0,0 UV-I 0 W/m 0,0 km/h (0 Bft)
05.06.2013 22:54 17,8 C 14,0 C 73 % 1017,4 hPa 0,0 l/m 0 min 0 min 0,0 UV-I 0 W/m 0,0 km/h (0 Bft)
05.06.2013 22:56 17,7 C 14,0 C 73 % 1017,3 hPa 0,0 l/m 0 min 0 min 0,0 UV-I 0 W/m 0,0 km/h (0 Bft)
05.06.2013 22:58 17,7 C 13,4 C 73 % 1017,4 hPa 0,0 l/m 0 min 0 min 0,0 UV-I 0 W/m 0,0 km/h (0 Bft)
05.06.2013 23:00 17,6 C 13,4 C 73 % 1017,4 hPa 0,0 l/m 0 min 0 min 0,0 UV-I 0 W/m 0,0 km/h (0 Bft)
05.06.2013 23:02 17,6 C 13,4 C 73 % 1017,4 hPa 0,0 l/m 0 min 0 min 0,0 UV-I 0 W/m 0,0 km/h (0 Bft)
05.06.2013 23:04 17,4 C 13,4 C 73 % 1017,4 hPa 0,0 l/m 0 min 0 min 0,0 UV-I 0 W/m 0,0 km/h (0 Bft)
05.06.2013 23:06 17,4 C 13,4 C 73 % 1017,4 hPa 0,0 l/m 0 min 0 min 0,0 UV-I 0 W/m 0,0 km/h (0 Bft)
05.06.2013 23:08 17,3 C 13,4 C 74 % 1017,4 hPa 0,0 l/m 0 min 0 min 0,0 UV-I 0 W/m 0,0 km/h (0 Bft)
05.06.2013 23:10 17,3 C 13,4 C 74 % 1017,4 hPa 0,0 l/m 0 min 0 min 0,0 UV-I 0 W/m 0,0 km/h (0 Bft)
05.06.2013 23:12 17,2 C 13,4 C 74 % 1017,4 hPa 0,0 l/m 0 min 0 min 0,0 UV-I 0 W/m 0,0 km/h (0 Bft)
05.06.2013 23:14 17,2 C 13,4 C 74 % 1017,5 hPa 0,0 l/m 0 min 0 min 0,0 UV-I 0 W/m 0,0 km/h (0 Bft)
05.06.2013 23:16 17,1 C 13,4 C 75 % 1017,5 hPa 0,0 l/m 0 min 0 min 0,0 UV-I 0 W/m 0,0 km/h (0 Bft)
05.06.2013 23:18 17,0 C 13,4 C 75 % 1017,4 hPa 0,0 l/m 0 min 0 min 0,0 UV-I 0 W/m 0,0 km/h (0 Bft)
05.06.2013 23:20 16,9 C 13,4 C 75 % 1017,5 hPa 0,0 l/m 0 min 0 min 0,0 UV-I 0 W/m 0,0 km/h (0 Bft)
05.06.2013 23:22 16,9 C 13,4 C 75 % 1017,5 hPa 0,0 l/m 0 min 0 min 0,0 UV-I 0 W/m 0,0 km/h (0 Bft)
05.06.2013 23:24 16,8 C 13,4 C 76 % 1017,5 hPa 0,0 l/m 0 min 0 min 0,0 UV-I 0 W/m 0,0 km/h (0 Bft)
05.06.2013 23:26 16,8 C 12,9 C 76 % 1017,5 hPa 0,0 l/m 0 min 0 min 0,0 UV-I 0 W/m 0,0 km/h (0 Bft)
05.06.2013 23:28 16,7 C 12,9 C 76 % 1017,5 hPa 0,0 l/m 0 min 0 min 0,0 UV-I 0 W/m 0,0 km/h (0 Bft)
05.06.2013 23:30 16,7 C 12,9 C 76 % 1017,5 hPa 0,0 l/m 0 min 0 min 0,0 UV-I 0 W/m 0,0 km/h (0 Bft)
05.06.2013 23:32 16,6 C 12,9 C 76 % 1017,5 hPa 0,0 l/m 0 min 0 min 0,0 UV-I 0 W/m 0,0 km/h (0 Bft)
05.06.2013 23:34 16,6 C 12,9 C 77 % 1017,5 hPa 0,0 l/m 0 min 0 min 0,0 UV-I 0 W/m 0,0 km/h (0 Bft)
05.06.2013 23:36 16,4 C 12,9 C 77 % 1017,5 hPa 0,0 l/m 0 min 0 min 0,0 UV-I 0 W/m 0,0 km/h (0 Bft)
05.06.2013 23:38 16,4 C 12,9 C 77 % 1017,6 hPa 0,0 l/m 0 min 0 min 0,0 UV-I 0 W/m 0,0 km/h (0 Bft)
05.06.2013 23:40 16,3 C 12,9 C 77 % 1017,6 hPa 0,0 l/m 0 min 0 min 0,0 UV-I 0 W/m 0,0 km/h (0 Bft)
05.06.2013 23:42 16,3 C 12,9 C 77 % 1017,6 hPa 0,0 l/m 0 min 0 min 0,0 UV-I 0 W/m 0,0 km/h (0 Bft)
05.06.2013 23:44 16,3 C 12,9 C 78 % 1017,6 hPa 0,0 l/m 0 min 0 min 0,0 UV-I 0 W/m 0,0 km/h (0 Bft)
05.06.2013 23:46 16,2 C 12,9 C 78 % 1017,6 hPa 0,0 l/m 0 min 0 min 0,0 UV-I 0 W/m 0,0 km/h (0 Bft)
05.06.2013 23:48 16,2 C 12,9 C 78 % 1017,6 hPa 0,0 l/m 0 min 0 min 0,0 UV-I 0 W/m 0,0 km/h (0 Bft)
05.06.2013 23:50 16,1 C 12,9 C 78 % 1017,6 hPa 0,0 l/m 0 min 0 min 0,0 UV-I 0 W/m 0,0 km/h (0 Bft)
05.06.2013 23:52 16,1 C 12,9 C 78 % 1017,6 hPa 0,0 l/m 0 min 0 min 0,0 UV-I 0 W/m 0,0 km/h (0 Bft)
05.06.2013 23:54 16,0 C 12,9 C 78 % 1017,6 hPa 0,0 l/m 0 min 0 min 0,0 UV-I 0 W/m 0,0 km/h (0 Bft)
05.06.2013 23:56 15,9 C 12,9 C 78 % 1017,6 hPa 0,0 l/m 0 min 0 min 0,0 UV-I 0 W/m 0,0 km/h (0 Bft)
05.06.2013 23:58 15,9 C 12,9 C 78 % 1017,7 hPa 0,0 l/m 0 min 0 min 0,0 UV-I 0 W/m 0,0 km/h (0 Bft)
_ Min-Zeit 06:28 04:34 15:44 20:10 - - - - - 00:00
Minimum _ 8,9 C 7,3 C 49 % 1016,4 hPa - - - - - 0,0 km/h (0 Bft)
_ Max-Zeit 15:22 12:50 07:28 00:00 00:00 07:52 00:00 12:38 14:12 12:10
Maximum _ 24,6 C 31,2 C 94 % 1019,5 hPa 0,0 l/m 2 min 0 min 4,8 UV-I 976 W/m 20,6 km/h
NW (4 Bft)
Durchschnitt _ 17,7 C 17,3 C 68 % 1017,9 hPa #0,0 l/m #8:40 h #0 min. 2,5 UV-I 390 W/m 3,4 km/h (1 Bft)
© 2013 W. Hausmann